ZPTAI SATR-SGCO
Flight info
| Callsign | ZPTAI |
|---|---|
| Flight time | N/A |
| Altitude | FL095 |
| Route | 2906S05939W 2856S05934W 2851S05930W 2829S05921W 2825S05916W 2823S05916W 2821S05915W 2802S05913W 2753S05917W 2726S05860W 2720S05857W 2702S05842W 2656S05840W 2639S05838W 2624S05821W 2611S05812W 2525S05747W 2517S05743W 2513S05743W 2460S05733W 2457S05733W 2425S05707W 2405S05712W |
| Aircraft | C152/L-S/N |
Departure
| Time | 2026-04-11 12:55 |
|---|---|
| Airport | Reconquista Airport (SATR) |
Arrival
| Time | N/A |
|---|---|
| Airport | Lieutenant Colonel Carmelo Peralta National Airport (SGCO) |
| Time | Latitude | Longitude | Altitude | Speed | Heading |
|---|---|---|---|---|---|
| 2026-04-11 12:46 | -29.20951 | -59.70038 | 161 ft | 0 kts | 195° |
| 2026-04-11 12:49 | -29.20954 | -59.70037 | 161 ft | 5 kts | 143° |
| 2026-04-11 12:49 | -29.20995 | -59.69989 | 161 ft | 17 kts | 181° |
| 2026-04-11 12:49 | -29.21088 | -59.70002 | 161 ft | 10 kts | 188° |
| 2026-04-11 12:50 | -29.21155 | -59.70012 | 161 ft | 12 kts | 187° |
| 2026-04-11 12:50 | -29.21256 | -59.70010 | 161 ft | 16 kts | 135° |
| 2026-04-11 12:50 | -29.21281 | -59.69888 | 161 ft | 13 kts | 98° |
| 2026-04-11 12:50 | -29.21345 | -59.69836 | 161 ft | 20 kts | 187° |
| 2026-04-11 12:51 | -29.21483 | -59.69861 | 161 ft | 17 kts | 189° |
| 2026-04-11 12:51 | -29.21581 | -59.69874 | 161 ft | 19 kts | 188° |
| 2026-04-11 12:51 | -29.21691 | -59.69907 | 161 ft | 10 kts | 218° |
| 2026-04-11 12:51 | -29.21686 | -59.69889 | 161 ft | 0 kts | 7° |
| 2026-04-11 12:52 | -29.21603 | -59.69878 | 161 ft | 34 kts | 8° |
| 2026-04-11 12:52 | -29.21236 | -59.69828 | 174 ft | 66 kts | 8° |
| 2026-04-11 12:52 | -29.20803 | -59.69798 | 323 ft | 60 kts | 6° |
| 2026-04-11 12:53 | -29.20369 | -59.69791 | 420 ft | 65 kts | 3° |
| 2026-04-11 12:53 | -29.19889 | -59.69784 | 459 ft | 78 kts | 5° |
| 2026-04-11 12:53 | -29.19300 | -59.69754 | 481 ft | 89 kts | 7° |
| 2026-04-11 12:53 | -29.18687 | -59.69609 | 538 ft | 91 kts | 20° |
| 2026-04-11 12:54 | -29.18090 | -59.69359 | 586 ft | 92 kts | 25° |
| 2026-04-11 12:54 | -29.17511 | -59.69074 | 617 ft | 92 kts | 27° |
| 2026-04-11 12:54 | -29.16918 | -59.68766 | 646 ft | 93 kts | 28° |
| 2026-04-11 12:54 | -29.16335 | -59.68456 | 674 ft | 93 kts | 28° |
| 2026-04-11 12:55 | -29.15752 | -59.68145 | 700 ft | 93 kts | 28° |
| 2026-04-11 12:55 | -29.15166 | -59.67833 | 727 ft | 93 kts | 28° |
| 2026-04-11 12:55 | -29.14585 | -59.67521 | 753 ft | 93 kts | 28° |
| 2026-04-11 12:55 | -29.13999 | -59.67208 | 778 ft | 93 kts | 28° |
| 2026-04-11 12:56 | -29.13410 | -59.66893 | 803 ft | 93 kts | 28° |
| 2026-04-11 12:56 | -29.12828 | -59.66582 | 827 ft | 93 kts | 28° |
| 2026-04-11 12:56 | -29.12248 | -59.66272 | 843 ft | 91 kts | 28° |
| 2026-04-11 12:56 | -29.11683 | -59.65970 | 851 ft | 89 kts | 29° |
| 2026-04-11 12:57 | -29.11127 | -59.65672 | 865 ft | 88 kts | 29° |
| 2026-04-11 12:57 | -29.10581 | -59.65375 | 883 ft | 87 kts | 30° |
| 2026-04-11 12:57 | -29.10040 | -59.65075 | 904 ft | 86 kts | 30° |
| 2026-04-11 12:57 | -29.09507 | -59.64778 | 927 ft | 86 kts | 30° |
| 2026-04-11 12:58 | -29.08968 | -59.64476 | 951 ft | 86 kts | 30° |
| 2026-04-11 12:58 | -29.08433 | -59.64176 | 976 ft | 86 kts | 30° |
| 2026-04-11 12:58 | -29.07901 | -59.63879 | 999 ft | 85 kts | 30° |
| 2026-04-11 12:58 | -29.07367 | -59.63580 | 1024 ft | 85 kts | 30° |
| 2026-04-11 12:59 | -29.06837 | -59.63284 | 1049 ft | 85 kts | 30° |
| 2026-04-11 12:59 | -29.06310 | -59.62988 | 1073 ft | 85 kts | 30° |
| 2026-04-11 12:59 | -29.05781 | -59.62692 | 1100 ft | 85 kts | 30° |
| 2026-04-11 12:59 | -29.05254 | -59.62397 | 1124 ft | 85 kts | 30° |
| 2026-04-11 13:00 | -29.04726 | -59.62102 | 1150 ft | 85 kts | 31° |
| 2026-04-11 13:00 | -29.04198 | -59.61806 | 1176 ft | 84 kts | 31° |
| 2026-04-11 13:00 | -29.03671 | -59.61512 | 1201 ft | 84 kts | 31° |
| 2026-04-11 13:00 | -29.03147 | -59.61219 | 1226 ft | 84 kts | 31° |
| 2026-04-11 13:01 | -29.02621 | -59.60924 | 1251 ft | 84 kts | 31° |
| 2026-04-11 13:01 | -29.01570 | -59.60336 | 1301 ft | 84 kts | 31° |
| 2026-04-11 13:01 | -29.01045 | -59.60043 | 1326 ft | 84 kts | 32° |
| 2026-04-11 13:02 | -29.00519 | -59.59749 | 1350 ft | 84 kts | 32° |
| 2026-04-11 13:02 | -28.99997 | -59.59457 | 1376 ft | 84 kts | 32° |
| 2026-04-11 13:02 | -28.99473 | -59.59164 | 1399 ft | 84 kts | 32° |
| 2026-04-11 13:02 | -28.98951 | -59.58872 | 1424 ft | 84 kts | 32° |
| 2026-04-11 13:03 | -28.98431 | -59.58582 | 1449 ft | 84 kts | 32° |
| 2026-04-11 13:03 | -28.97908 | -59.58289 | 1474 ft | 84 kts | 32° |
| 2026-04-11 13:03 | -28.97387 | -59.57998 | 1498 ft | 84 kts | 33° |
| 2026-04-11 13:03 | -28.96869 | -59.57709 | 1522 ft | 84 kts | 33° |
| 2026-04-11 13:04 | -28.96348 | -59.57418 | 1546 ft | 84 kts | 33° |
| 2026-04-11 13:04 | -28.95826 | -59.57126 | 1570 ft | 84 kts | 33° |
| 2026-04-11 13:04 | -28.95304 | -59.56834 | 1595 ft | 84 kts | 33° |
| 2026-04-11 13:04 | -28.94783 | -59.56543 | 1620 ft | 84 kts | 33° |
| 2026-04-11 13:05 | -28.94264 | -59.56252 | 1646 ft | 84 kts | 34° |
| 2026-04-11 13:05 | -28.93745 | -59.55955 | 1671 ft | 83 kts | 36° |
| 2026-04-11 13:05 | -28.93242 | -59.55637 | 1698 ft | 83 kts | 37° |
| 2026-04-11 13:05 | -28.92738 | -59.55312 | 1723 ft | 83 kts | 38° |
| 2026-04-11 13:06 | -28.92240 | -59.54988 | 1749 ft | 83 kts | 38° |
| 2026-04-11 13:06 | -28.91739 | -59.54662 | 1774 ft | 83 kts | 38° |
| 2026-04-11 13:06 | -28.91237 | -59.54336 | 1801 ft | 83 kts | 38° |
| 2026-04-11 13:06 | -28.90741 | -59.54013 | 1824 ft | 83 kts | 38° |
| 2026-04-11 13:07 | -28.90242 | -59.53687 | 1849 ft | 83 kts | 38° |
| 2026-04-11 13:07 | -28.89744 | -59.53363 | 1875 ft | 83 kts | 38° |
| 2026-04-11 13:07 | -28.89249 | -59.53041 | 1901 ft | 82 kts | 38° |
| 2026-04-11 13:07 | -28.88755 | -59.52719 | 1928 ft | 82 kts | 38° |
| 2026-04-11 13:08 | -28.88263 | -59.52398 | 1952 ft | 82 kts | 38° |
| 2026-04-11 13:08 | -28.87771 | -59.52078 | 1976 ft | 81 kts | 38° |
| 2026-04-11 13:08 | -28.87283 | -59.51760 | 2001 ft | 81 kts | 38° |
| 2026-04-11 13:08 | -28.86792 | -59.51441 | 2025 ft | 81 kts | 39° |
| 2026-04-11 13:09 | -28.86300 | -59.51120 | 2049 ft | 82 kts | 39° |
| 2026-04-11 13:09 | -28.85805 | -59.50798 | 2074 ft | 82 kts | 39° |
| 2026-04-11 13:09 | -28.85312 | -59.50477 | 2099 ft | 82 kts | 39° |
| 2026-04-11 13:09 | -28.84814 | -59.50152 | 2124 ft | 83 kts | 39° |
| 2026-04-11 13:10 | -28.84290 | -59.49862 | 2151 ft | 85 kts | 30° |
| 2026-04-11 13:10 | -28.83738 | -59.49625 | 2178 ft | 86 kts | 29° |
| 2026-04-11 13:10 | -28.83179 | -59.49392 | 2203 ft | 86 kts | 29° |
| 2026-04-11 13:10 | -28.82613 | -59.49158 | 2228 ft | 87 kts | 29° |
| 2026-04-11 13:11 | -28.82046 | -59.48923 | 2253 ft | 87 kts | 28° |
| 2026-04-11 13:11 | -28.81474 | -59.48687 | 2279 ft | 88 kts | 28° |
| 2026-04-11 13:11 | -28.80900 | -59.48451 | 2304 ft | 88 kts | 28° |
| 2026-04-11 13:11 | -28.80325 | -59.48213 | 2329 ft | 89 kts | 28° |
| 2026-04-11 13:12 | -28.79744 | -59.47974 | 2353 ft | 89 kts | 28° |
| 2026-04-11 13:12 | -28.79162 | -59.47734 | 2379 ft | 89 kts | 28° |
| 2026-04-11 13:12 | -28.78580 | -59.47494 | 2405 ft | 90 kts | 28° |
| 2026-04-11 13:12 | -28.77992 | -59.47252 | 2431 ft | 90 kts | 27° |
| 2026-04-11 13:13 | -28.77402 | -59.47009 | 2456 ft | 90 kts | 27° |
| 2026-04-11 13:13 | -28.76811 | -59.46765 | 2481 ft | 91 kts | 27° |
| 2026-04-11 13:13 | -28.76220 | -59.46522 | 2506 ft | 91 kts | 27° |
| 2026-04-11 13:13 | -28.75626 | -59.46277 | 2530 ft | 91 kts | 27° |
| 2026-04-11 13:14 | -28.75027 | -59.46031 | 2555 ft | 91 kts | 27° |
| 2026-04-11 13:14 | -28.74429 | -59.45785 | 2579 ft | 92 kts | 26° |
| 2026-04-11 13:14 | -28.73831 | -59.45538 | 2604 ft | 92 kts | 26° |
| 2026-04-11 13:14 | -28.73230 | -59.45291 | 2630 ft | 92 kts | 26° |
| 2026-04-11 13:15 | -28.72627 | -59.45043 | 2655 ft | 92 kts | 26° |
| 2026-04-11 13:15 | -28.72023 | -59.44794 | 2680 ft | 93 kts | 26° |
| 2026-04-11 13:15 | -28.71414 | -59.44544 | 2715 ft | 93 kts | 27° |
| 2026-04-11 13:15 | -28.70843 | -59.44309 | 2804 ft | 82 kts | 26° |
| 2026-04-11 13:16 | -28.70323 | -59.44090 | 2833 ft | 79 kts | 22° |
| 2026-04-11 13:16 | -28.69812 | -59.43880 | 2846 ft | 78 kts | 22° |
| 2026-04-11 13:16 | -28.69309 | -59.43673 | 2865 ft | 77 kts | 22° |
| 2026-04-11 13:16 | -28.68809 | -59.43467 | 2885 ft | 76 kts | 22° |
| 2026-04-11 13:17 | -28.68311 | -59.43262 | 2908 ft | 76 kts | 22° |
| 2026-04-11 13:17 | -28.67816 | -59.43059 | 2931 ft | 76 kts | 22° |
| 2026-04-11 13:17 | -28.67324 | -59.42856 | 2954 ft | 75 kts | 22° |
| 2026-04-11 13:17 | -28.66833 | -59.42655 | 2978 ft | 75 kts | 22° |
| 2026-04-11 13:18 | -28.66342 | -59.42453 | 3003 ft | 75 kts | 22° |
| 2026-04-11 13:18 | -28.65852 | -59.42252 | 3028 ft | 75 kts | 22° |
| 2026-04-11 13:18 | -28.65363 | -59.42050 | 3052 ft | 75 kts | 22° |
| 2026-04-11 13:18 | -28.64874 | -59.41850 | 3077 ft | 75 kts | 24° |
| 2026-04-11 13:19 | -28.64387 | -59.41649 | 3102 ft | 75 kts | 24° |
| 2026-04-11 13:19 | -28.63900 | -59.41449 | 3126 ft | 75 kts | 24° |
| 2026-04-11 13:19 | -28.63412 | -59.41249 | 3149 ft | 75 kts | 25° |
| 2026-04-11 13:19 | -28.62925 | -59.41049 | 3174 ft | 75 kts | 24° |
| 2026-04-11 13:20 | -28.62438 | -59.40848 | 3199 ft | 75 kts | 25° |
| 2026-04-11 13:20 | -28.61952 | -59.40649 | 3224 ft | 75 kts | 25° |
| 2026-04-11 13:20 | -28.61465 | -59.40449 | 3250 ft | 75 kts | 25° |
| 2026-04-11 13:20 | -28.60977 | -59.40248 | 3277 ft | 75 kts | 25° |
| 2026-04-11 13:21 | -28.60488 | -59.40047 | 3303 ft | 75 kts | 25° |
| 2026-04-11 13:21 | -28.59998 | -59.39846 | 3329 ft | 75 kts | 25° |
| 2026-04-11 13:21 | -28.59509 | -59.39645 | 3354 ft | 75 kts | 25° |
| 2026-04-11 13:21 | -28.59018 | -59.39444 | 3378 ft | 75 kts | 25° |
| 2026-04-11 13:22 | -28.58528 | -59.39243 | 3401 ft | 75 kts | 25° |
| 2026-04-11 13:22 | -28.58037 | -59.39041 | 3430 ft | 76 kts | 25° |
| 2026-04-11 13:22 | -28.57539 | -59.38836 | 3466 ft | 77 kts | 25° |
| 2026-04-11 13:22 | -28.57034 | -59.38629 | 3498 ft | 78 kts | 25° |
| 2026-04-11 13:23 | -28.56526 | -59.38421 | 3528 ft | 78 kts | 25° |
| 2026-04-11 13:23 | -28.56015 | -59.38211 | 3556 ft | 79 kts | 25° |
| 2026-04-11 13:23 | -28.55502 | -59.38000 | 3583 ft | 79 kts | 25° |
| 2026-04-11 13:23 | -28.54986 | -59.37788 | 3610 ft | 79 kts | 25° |
| 2026-04-11 13:24 | -28.54470 | -59.37577 | 3635 ft | 79 kts | 25° |
| 2026-04-11 13:24 | -28.53953 | -59.37364 | 3660 ft | 79 kts | 25° |
| 2026-04-11 13:24 | -28.53434 | -59.37152 | 3685 ft | 79 kts | 25° |
| 2026-04-11 13:24 | -28.52917 | -59.36940 | 3710 ft | 79 kts | 25° |
| 2026-04-11 13:25 | -28.52400 | -59.36727 | 3735 ft | 79 kts | 25° |
| 2026-04-11 13:25 | -28.51880 | -59.36514 | 3759 ft | 79 kts | 25° |
| 2026-04-11 13:25 | -28.51363 | -59.36302 | 3783 ft | 79 kts | 25° |
| 2026-04-11 13:25 | -28.50842 | -59.36088 | 3811 ft | 80 kts | 25° |
| 2026-04-11 13:26 | -28.50318 | -59.35873 | 3843 ft | 81 kts | 25° |
| 2026-04-11 13:26 | -28.49790 | -59.35656 | 3872 ft | 81 kts | 25° |
| 2026-04-11 13:26 | -28.49260 | -59.35438 | 3899 ft | 81 kts | 25° |
| 2026-04-11 13:26 | -28.48742 | -59.35187 | 3922 ft | 80 kts | 40° |
| 2026-04-11 13:27 | -28.48398 | -59.34721 | 3995 ft | 75 kts | 44° |
| 2026-04-11 13:27 | -28.48021 | -59.34310 | 4046 ft | 75 kts | 47° |
| 2026-04-11 13:27 | -28.47661 | -59.33875 | 4086 ft | 76 kts | 48° |
| 2026-04-11 13:27 | -28.47298 | -59.33429 | 4121 ft | 77 kts | 49° |
| 2026-04-11 13:28 | -28.46934 | -59.32980 | 4153 ft | 78 kts | 49° |
| 2026-04-11 13:28 | -28.46565 | -59.32526 | 4182 ft | 78 kts | 49° |
| 2026-04-11 13:28 | -28.46195 | -59.32070 | 4210 ft | 79 kts | 49° |
| 2026-04-11 13:28 | -28.45824 | -59.31612 | 4237 ft | 79 kts | 49° |
| 2026-04-11 13:29 | -28.45452 | -59.31153 | 4264 ft | 79 kts | 49° |
| 2026-04-11 13:29 | -28.45079 | -59.30693 | 4290 ft | 79 kts | 49° |
| 2026-04-11 13:29 | -28.44705 | -59.30232 | 4315 ft | 79 kts | 49° |
| 2026-04-11 13:29 | -28.44331 | -59.29771 | 4340 ft | 80 kts | 50° |
| 2026-04-11 13:30 | -28.43957 | -59.29309 | 4364 ft | 80 kts | 49° |
| 2026-04-11 13:30 | -28.43582 | -59.28848 | 4390 ft | 80 kts | 49° |
| 2026-04-11 13:30 | -28.43206 | -59.28385 | 4416 ft | 80 kts | 49° |
| 2026-04-11 13:30 | -28.42831 | -59.27923 | 4442 ft | 80 kts | 49° |
| 2026-04-11 13:31 | -28.42456 | -59.27461 | 4467 ft | 80 kts | 49° |
| 2026-04-11 13:31 | -28.42081 | -59.26998 | 4493 ft | 80 kts | 49° |
| 2026-04-11 13:31 | -28.41707 | -59.26537 | 4517 ft | 80 kts | 49° |
| 2026-04-11 13:31 | -28.41332 | -59.26074 | 4542 ft | 80 kts | 50° |
| 2026-04-11 13:32 | -28.40848 | -59.25802 | 4558 ft | 88 kts | 357° |
| 2026-04-11 13:32 | -28.40306 | -59.26091 | 4650 ft | 83 kts | 351° |
| 2026-04-11 13:32 | -28.39796 | -59.26033 | 4748 ft | 73 kts | 14° |
| 2026-04-11 13:32 | -28.39275 | -59.26210 | 4828 ft | 78 kts | 350° |
| 2026-04-11 13:33 | -28.38771 | -59.26200 | 4918 ft | 72 kts | 5° |
| 2026-04-11 13:33 | -28.38263 | -59.26312 | 4982 ft | 74 kts | 9° |
| 2026-04-11 13:33 | -28.37770 | -59.26256 | 5062 ft | 72 kts | 14° |
| 2026-04-11 13:33 | -28.37261 | -59.26183 | 5117 ft | 75 kts | 14° |
| 2026-04-11 13:34 | -28.36741 | -59.26102 | 5166 ft | 77 kts | 15° |
| 2026-04-11 13:34 | -28.36205 | -59.26018 | 5209 ft | 78 kts | 15° |
| 2026-04-11 13:34 | -28.35664 | -59.25932 | 5247 ft | 80 kts | 15° |
| 2026-04-11 13:34 | -28.35111 | -59.25844 | 5282 ft | 81 kts | 15° |
| 2026-04-11 13:35 | -28.34553 | -59.25767 | 5314 ft | 82 kts | 14° |
| 2026-04-11 13:35 | -28.33989 | -59.25695 | 5344 ft | 82 kts | 13° |
| 2026-04-11 13:35 | -28.33421 | -59.25621 | 5372 ft | 82 kts | 14° |
| 2026-04-11 13:35 | -28.32852 | -59.25547 | 5399 ft | 83 kts | 14° |
| 2026-04-11 13:36 | -28.32281 | -59.25473 | 5425 ft | 83 kts | 14° |
| 2026-04-11 13:36 | -28.31708 | -59.25399 | 5451 ft | 83 kts | 14° |
| 2026-04-11 13:36 | -28.31135 | -59.25325 | 5477 ft | 83 kts | 14° |
| 2026-04-11 13:36 | -28.30563 | -59.25251 | 5502 ft | 83 kts | 14° |
| 2026-04-11 13:37 | -28.29990 | -59.25176 | 5526 ft | 83 kts | 14° |
| 2026-04-11 13:37 | -28.29415 | -59.25102 | 5550 ft | 83 kts | 14° |
| 2026-04-11 13:37 | -28.28843 | -59.25028 | 5576 ft | 83 kts | 14° |
| 2026-04-11 13:37 | -28.28271 | -59.24954 | 5601 ft | 83 kts | 14° |
| 2026-04-11 13:38 | -28.27696 | -59.24879 | 5626 ft | 83 kts | 14° |
| 2026-04-11 13:38 | -28.27128 | -59.24806 | 5651 ft | 83 kts | 14° |
| 2026-04-11 13:38 | -28.26554 | -59.24731 | 5675 ft | 83 kts | 14° |
| 2026-04-11 13:38 | -28.25981 | -59.24657 | 5700 ft | 83 kts | 14° |
| 2026-04-11 13:39 | -28.25409 | -59.24583 | 5725 ft | 83 kts | 14° |
| 2026-04-11 13:39 | -28.24837 | -59.24509 | 5749 ft | 83 kts | 14° |
| 2026-04-11 13:39 | -28.24266 | -59.24435 | 5774 ft | 83 kts | 14° |
| 2026-04-11 13:39 | -28.23697 | -59.24361 | 5801 ft | 82 kts | 14° |
| 2026-04-11 13:40 | -28.23131 | -59.24288 | 5825 ft | 82 kts | 14° |
| 2026-04-11 13:40 | -28.22565 | -59.24215 | 5850 ft | 82 kts | 14° |
| 2026-04-11 13:40 | -28.22003 | -59.24142 | 5874 ft | 82 kts | 14° |
| 2026-04-11 13:40 | -28.21439 | -59.24069 | 5899 ft | 82 kts | 14° |
| 2026-04-11 13:41 | -28.20878 | -59.23997 | 5924 ft | 81 kts | 14° |
| 2026-04-11 13:41 | -28.20316 | -59.23924 | 5949 ft | 81 kts | 14° |
| 2026-04-11 13:41 | -28.19755 | -59.23851 | 5974 ft | 81 kts | 15° |
| 2026-04-11 13:41 | -28.19196 | -59.23779 | 5999 ft | 81 kts | 15° |
| 2026-04-11 13:42 | -28.18636 | -59.23707 | 6024 ft | 81 kts | 15° |
| 2026-04-11 13:42 | -28.18079 | -59.23635 | 6050 ft | 81 kts | 15° |
| 2026-04-11 13:42 | -28.17522 | -59.23563 | 6075 ft | 81 kts | 15° |
| 2026-04-11 13:42 | -28.16967 | -59.23491 | 6100 ft | 81 kts | 15° |
| 2026-04-11 13:43 | -28.16410 | -59.23419 | 6126 ft | 81 kts | 15° |
| 2026-04-11 13:43 | -28.15852 | -59.23347 | 6151 ft | 81 kts | 15° |
| 2026-04-11 13:43 | -28.15297 | -59.23275 | 6176 ft | 80 kts | 15° |
| 2026-04-11 13:43 | -28.14742 | -59.23203 | 6201 ft | 80 kts | 15° |
| 2026-04-11 13:44 | -28.14189 | -59.23132 | 6225 ft | 80 kts | 15° |
| 2026-04-11 13:44 | -28.13634 | -59.23060 | 6250 ft | 80 kts | 15° |
| 2026-04-11 13:44 | -28.13081 | -59.22988 | 6274 ft | 80 kts | 15° |
| 2026-04-11 13:44 | -28.12529 | -59.22917 | 6299 ft | 80 kts | 15° |
| 2026-04-11 13:45 | -28.11975 | -59.22845 | 6322 ft | 80 kts | 15° |
| 2026-04-11 13:45 | -28.11422 | -59.22774 | 6348 ft | 80 kts | 15° |
| 2026-04-11 13:45 | -28.10869 | -59.22703 | 6373 ft | 80 kts | 15° |
| 2026-04-11 13:45 | -28.10317 | -59.22631 | 6398 ft | 80 kts | 15° |
| 2026-04-11 13:46 | -28.09765 | -59.22560 | 6423 ft | 80 kts | 15° |
| 2026-04-11 13:46 | -28.09214 | -59.22489 | 6448 ft | 80 kts | 15° |
| 2026-04-11 13:46 | -28.08661 | -59.22418 | 6473 ft | 80 kts | 15° |
| 2026-04-11 13:46 | -28.08111 | -59.22346 | 6498 ft | 80 kts | 15° |
| 2026-04-11 13:47 | -28.07560 | -59.22275 | 6523 ft | 80 kts | 15° |
| 2026-04-11 13:47 | -28.07011 | -59.22204 | 6547 ft | 80 kts | 15° |
| 2026-04-11 13:47 | -28.06462 | -59.22133 | 6572 ft | 80 kts | 15° |
| 2026-04-11 13:47 | -28.05911 | -59.22062 | 6597 ft | 80 kts | 15° |
| 2026-04-11 13:48 | -28.05362 | -59.21991 | 6622 ft | 80 kts | 15° |
| 2026-04-11 13:48 | -28.04813 | -59.21919 | 6646 ft | 80 kts | 15° |
| 2026-04-11 13:48 | -28.04263 | -59.21847 | 6671 ft | 80 kts | 15° |
| 2026-04-11 13:48 | -28.03708 | -59.21833 | 6695 ft | 85 kts | 353° |
| 2026-04-11 13:49 | -28.03158 | -59.22065 | 6742 ft | 83 kts | 351° |
| 2026-04-11 13:49 | -28.02609 | -59.22275 | 6773 ft | 84 kts | 350° |
| 2026-04-11 13:49 | -28.02058 | -59.22491 | 6802 ft | 84 kts | 350° |
| 2026-04-11 13:49 | -28.01506 | -59.22709 | 6829 ft | 85 kts | 350° |
| 2026-04-11 13:50 | -28.00951 | -59.22930 | 6856 ft | 85 kts | 350° |
| 2026-04-11 13:50 | -28.00396 | -59.23151 | 6882 ft | 85 kts | 350° |
| 2026-04-11 13:50 | -27.99848 | -59.23370 | 6907 ft | 85 kts | 350° |
| 2026-04-11 13:50 | -27.99282 | -59.23596 | 6933 ft | 85 kts | 350° |
| 2026-04-11 13:51 | -27.98725 | -59.23818 | 6958 ft | 85 kts | 350° |
| 2026-04-11 13:51 | -27.98167 | -59.24040 | 6982 ft | 85 kts | 350° |
| 2026-04-11 13:51 | -27.97608 | -59.24263 | 7007 ft | 85 kts | 350° |
| 2026-04-11 13:51 | -27.97063 | -59.24481 | 7030 ft | 85 kts | 350° |
| 2026-04-11 13:52 | -27.96493 | -59.24708 | 7055 ft | 85 kts | 350° |
| 2026-04-11 13:52 | -27.95934 | -59.24931 | 7079 ft | 85 kts | 350° |
| 2026-04-11 13:52 | -27.95376 | -59.25153 | 7103 ft | 85 kts | 350° |
| 2026-04-11 13:52 | -27.94817 | -59.25376 | 7127 ft | 85 kts | 350° |
| 2026-04-11 13:53 | -27.94259 | -59.25598 | 7151 ft | 85 kts | 350° |
| 2026-04-11 13:53 | -27.93701 | -59.25821 | 7176 ft | 85 kts | 350° |
| 2026-04-11 13:53 | -27.93144 | -59.26043 | 7200 ft | 85 kts | 350° |
| 2026-04-11 13:53 | -27.92588 | -59.26264 | 7225 ft | 85 kts | 350° |
| 2026-04-11 13:54 | -27.92030 | -59.26486 | 7250 ft | 85 kts | 350° |
| 2026-04-11 13:54 | -27.91478 | -59.26706 | 7275 ft | 85 kts | 350° |
| 2026-04-11 13:54 | -27.90918 | -59.26929 | 7300 ft | 85 kts | 350° |
| 2026-04-11 13:54 | -27.90363 | -59.27149 | 7324 ft | 85 kts | 350° |
| 2026-04-11 13:55 | -27.89807 | -59.27370 | 7349 ft | 85 kts | 350° |
| 2026-04-11 13:55 | -27.89251 | -59.27590 | 7374 ft | 85 kts | 351° |
| 2026-04-11 13:55 | -27.88695 | -59.27801 | 7396 ft | 83 kts | 356° |
| 2026-04-11 13:55 | -27.88254 | -59.27607 | 7448 ft | 63 kts | 57° |
| 2026-04-11 13:56 | -27.87880 | -59.27385 | 7525 ft | 68 kts | 12° |
| 2026-04-11 13:56 | -27.87490 | -59.27211 | 7571 ft | 55 kts | 62° |
| 2026-04-11 13:56 | -27.87209 | -59.26965 | 7654 ft | 60 kts | 13° |
| 2026-04-11 13:56 | -27.86834 | -59.26871 | 7681 ft | 51 kts | 61° |
| 2026-04-11 13:57 | -27.86709 | -59.26541 | 7721 ft | 53 kts | 56° |
| 2026-04-11 13:57 | -27.86317 | -59.26407 | 7742 ft | 68 kts | 7° |
| 2026-04-11 13:57 | -27.85956 | -59.26212 | 7766 ft | 54 kts | 71° |
| 2026-04-11 13:57 | -27.85720 | -59.25920 | 7826 ft | 64 kts | 14° |
| 2026-04-11 13:58 | -27.85261 | -59.26023 | 7850 ft | 67 kts | 17° |
| 2026-04-11 13:58 | -27.85014 | -59.25693 | 7874 ft | 54 kts | 74° |
| 2026-04-11 13:58 | -27.84683 | -59.25421 | 7871 ft | 70 kts | 25° |
| 2026-04-11 13:58 | -27.84290 | -59.25125 | 7857 ft | 69 kts | 53° |
| 2026-04-11 13:59 | -27.83846 | -59.24835 | 7824 ft | 78 kts | 39° |
| 2026-04-11 13:59 | -27.83363 | -59.24520 | 7764 ft | 83 kts | 39° |
| 2026-04-11 13:59 | -27.82848 | -59.24187 | 7682 ft | 88 kts | 38° |
| 2026-04-11 13:59 | -27.82307 | -59.23839 | 7586 ft | 91 kts | 37° |
| 2026-04-11 14:00 | -27.81753 | -59.23485 | 7508 ft | 91 kts | 37° |
| 2026-04-11 14:00 | -27.81212 | -59.23142 | 7478 ft | 88 kts | 37° |
| 2026-04-11 14:00 | -27.80247 | -59.22529 | 7478 ft | 81 kts | 38° |
| 2026-04-11 14:01 | -27.79721 | -59.22191 | 7500 ft | 76 kts | 35° |
| 2026-04-11 14:01 | -27.79264 | -59.21900 | 7497 ft | 76 kts | 35° |
| 2026-04-11 14:01 | -27.78808 | -59.21609 | 7494 ft | 75 kts | 35° |
| 2026-04-11 14:01 | -27.78356 | -59.21321 | 7495 ft | 75 kts | 35° |
| 2026-04-11 14:02 | -27.77907 | -59.21034 | 7497 ft | 74 kts | 35° |
| 2026-04-11 14:02 | -27.77463 | -59.20750 | 7499 ft | 74 kts | 35° |
| 2026-04-11 14:02 | -27.77019 | -59.20466 | 7506 ft | 73 kts | 33° |
| 2026-04-11 14:02 | -27.76579 | -59.20185 | 7499 ft | 73 kts | 33° |
| 2026-04-11 14:03 | -27.76138 | -59.19904 | 7497 ft | 73 kts | 32° |
| 2026-04-11 14:03 | -27.75698 | -59.19624 | 7496 ft | 73 kts | 32° |
| 2026-04-11 14:03 | -27.75260 | -59.19344 | 7496 ft | 72 kts | 32° |
| 2026-04-11 14:03 | -27.74824 | -59.19066 | 7496 ft | 72 kts | 32° |
| 2026-04-11 14:04 | -27.74389 | -59.18789 | 7497 ft | 72 kts | 32° |
| 2026-04-11 14:04 | -27.73956 | -59.18512 | 7497 ft | 72 kts | 32° |
| 2026-04-11 14:04 | -27.73521 | -59.18235 | 7497 ft | 72 kts | 32° |
| 2026-04-11 14:04 | -27.73088 | -59.17959 | 7497 ft | 72 kts | 31° |
| 2026-04-11 14:05 | -27.72656 | -59.17683 | 7497 ft | 72 kts | 31° |
| 2026-04-11 14:05 | -27.72222 | -59.17407 | 7496 ft | 72 kts | 31° |
| 2026-04-11 14:05 | -27.71789 | -59.17131 | 7496 ft | 72 kts | 31° |
| 2026-04-11 14:05 | -27.71358 | -59.16856 | 7496 ft | 71 kts | 31° |
| 2026-04-11 14:06 | -27.70925 | -59.16580 | 7497 ft | 71 kts | 31° |
| 2026-04-11 14:06 | -27.70495 | -59.16306 | 7497 ft | 71 kts | 31° |
| 2026-04-11 14:06 | -27.70062 | -59.16030 | 7497 ft | 71 kts | 31° |
| 2026-04-11 14:06 | -27.69631 | -59.15755 | 7497 ft | 71 kts | 31° |
| 2026-04-11 14:07 | -27.69200 | -59.15481 | 7497 ft | 71 kts | 31° |
| 2026-04-11 14:07 | -27.68767 | -59.15205 | 7497 ft | 71 kts | 31° |
| 2026-04-11 14:07 | -27.68337 | -59.14931 | 7497 ft | 71 kts | 31° |
| 2026-04-11 14:07 | -27.67905 | -59.14656 | 7497 ft | 71 kts | 31° |
| 2026-04-11 14:08 | -27.67473 | -59.14381 | 7497 ft | 71 kts | 31° |
| 2026-04-11 14:08 | -27.67042 | -59.14106 | 7497 ft | 71 kts | 31° |
| 2026-04-11 14:08 | -27.66609 | -59.13831 | 7497 ft | 71 kts | 31° |
| 2026-04-11 14:08 | -27.66177 | -59.13555 | 7497 ft | 71 kts | 31° |
| 2026-04-11 14:09 | -27.65746 | -59.13281 | 7497 ft | 71 kts | 31° |
| 2026-04-11 14:09 | -27.65313 | -59.13005 | 7497 ft | 71 kts | 31° |
| 2026-04-11 14:09 | -27.64882 | -59.12731 | 7497 ft | 71 kts | 31° |
| 2026-04-11 14:09 | -27.64450 | -59.12456 | 7497 ft | 71 kts | 31° |
| 2026-04-11 14:10 | -27.64018 | -59.12181 | 7497 ft | 71 kts | 31° |
| 2026-04-11 14:10 | -27.63587 | -59.11907 | 7497 ft | 71 kts | 31° |
| 2026-04-11 14:10 | -27.63155 | -59.11632 | 7497 ft | 71 kts | 31° |
| 2026-04-11 14:10 | -27.62723 | -59.11357 | 7497 ft | 71 kts | 31° |
| 2026-04-11 14:11 | -27.62292 | -59.11083 | 7497 ft | 71 kts | 31° |
| 2026-04-11 14:11 | -27.61860 | -59.10808 | 7497 ft | 71 kts | 31° |
| 2026-04-11 14:11 | -27.61428 | -59.10533 | 7497 ft | 71 kts | 31° |
| 2026-04-11 14:11 | -27.60997 | -59.10259 | 7497 ft | 71 kts | 31° |
| 2026-04-11 14:12 | -27.60566 | -59.09985 | 7497 ft | 71 kts | 31° |
| 2026-04-11 14:12 | -27.60135 | -59.09710 | 7496 ft | 71 kts | 31° |
| 2026-04-11 14:12 | -27.59705 | -59.09437 | 7497 ft | 71 kts | 29° |
| 2026-04-11 14:12 | -27.59273 | -59.09161 | 7494 ft | 71 kts | 27° |
| 2026-04-11 14:13 | -27.58841 | -59.08887 | 7493 ft | 71 kts | 27° |
| 2026-04-11 14:13 | -27.58409 | -59.08613 | 7493 ft | 71 kts | 27° |
| 2026-04-11 14:13 | -27.57978 | -59.08339 | 7493 ft | 71 kts | 27° |
| 2026-04-11 14:13 | -27.57547 | -59.08065 | 7493 ft | 71 kts | 27° |
| 2026-04-11 14:14 | -27.57116 | -59.07791 | 7493 ft | 71 kts | 27° |
| 2026-04-11 14:14 | -27.56687 | -59.07519 | 7493 ft | 71 kts | 27° |
| 2026-04-11 14:14 | -27.56256 | -59.07245 | 7493 ft | 71 kts | 27° |
| 2026-04-11 14:14 | -27.55826 | -59.06971 | 7493 ft | 71 kts | 27° |
| 2026-04-11 14:15 | -27.55395 | -59.06698 | 7493 ft | 71 kts | 27° |
| 2026-04-11 14:15 | -27.54965 | -59.06424 | 7493 ft | 71 kts | 27° |
| 2026-04-11 14:15 | -27.54534 | -59.06152 | 7493 ft | 71 kts | 31° |
| 2026-04-11 14:15 | -27.54104 | -59.05879 | 7496 ft | 71 kts | 31° |
| 2026-04-11 14:16 | -27.53676 | -59.05606 | 7497 ft | 71 kts | 31° |
| 2026-04-11 14:16 | -27.53247 | -59.05334 | 7498 ft | 71 kts | 31° |
| 2026-04-11 14:16 | -27.52817 | -59.05061 | 7498 ft | 71 kts | 31° |
| 2026-04-11 14:16 | -27.52387 | -59.04788 | 7498 ft | 71 kts | 31° |
| 2026-04-11 14:17 | -27.51957 | -59.04514 | 7497 ft | 71 kts | 32° |
| 2026-04-11 14:17 | -27.51526 | -59.04241 | 7497 ft | 71 kts | 32° |
| 2026-04-11 14:17 | -27.51096 | -59.03968 | 7497 ft | 71 kts | 32° |
| 2026-04-11 14:17 | -27.50660 | -59.03693 | 7491 ft | 73 kts | 35° |
| 2026-04-11 14:18 | -27.50224 | -59.03415 | 7499 ft | 72 kts | 35° |
| 2026-04-11 14:18 | -27.49788 | -59.03138 | 7502 ft | 72 kts | 35° |
| 2026-04-11 14:18 | -27.49350 | -59.02860 | 7503 ft | 73 kts | 35° |
| 2026-04-11 14:18 | -27.48910 | -59.02581 | 7502 ft | 73 kts | 35° |
| 2026-04-11 14:19 | -27.48470 | -59.02301 | 7501 ft | 73 kts | 35° |
| 2026-04-11 14:19 | -27.48028 | -59.02021 | 7501 ft | 73 kts | 35° |
| 2026-04-11 14:19 | -27.47597 | -59.01748 | 7526 ft | 71 kts | 35° |
| 2026-04-11 14:19 | -27.47170 | -59.01478 | 7543 ft | 70 kts | 35° |
| 2026-04-11 14:20 | -27.46749 | -59.01211 | 7562 ft | 69 kts | 35° |
| 2026-04-11 14:20 | -27.46333 | -59.00947 | 7582 ft | 69 kts | 35° |
| 2026-04-11 14:20 | -27.45920 | -59.00685 | 7604 ft | 68 kts | 35° |
| 2026-04-11 14:20 | -27.45505 | -59.00422 | 7626 ft | 68 kts | 35° |
| 2026-04-11 14:21 | -27.45098 | -59.00163 | 7648 ft | 68 kts | 35° |
| 2026-04-11 14:21 | -27.44687 | -58.99902 | 7671 ft | 67 kts | 36° |
| 2026-04-11 14:21 | -27.44283 | -58.99646 | 7694 ft | 67 kts | 36° |
| 2026-04-11 14:21 | -27.43869 | -58.99392 | 7719 ft | 68 kts | 30° |
| 2026-04-11 14:22 | -27.43423 | -58.99209 | 7746 ft | 68 kts | 27° |
| 2026-04-11 14:22 | -27.42975 | -58.99031 | 7770 ft | 68 kts | 27° |
| 2026-04-11 14:22 | -27.42529 | -58.98854 | 7799 ft | 67 kts | 25° |
| 2026-04-11 14:22 | -27.42103 | -58.98683 | 7838 ft | 65 kts | 18° |
| 2026-04-11 14:23 | -27.41680 | -58.98518 | 7858 ft | 64 kts | 19° |
| 2026-04-11 14:23 | -27.41259 | -58.98353 | 7881 ft | 64 kts | 19° |
| 2026-04-11 14:23 | -27.40842 | -58.98188 | 7904 ft | 64 kts | 19° |
| 2026-04-11 14:23 | -27.40427 | -58.98025 | 7927 ft | 63 kts | 19° |
| 2026-04-11 14:24 | -27.40013 | -58.97862 | 7951 ft | 63 kts | 19° |
| 2026-04-11 14:24 | -27.39601 | -58.97700 | 7975 ft | 63 kts | 18° |
| 2026-04-11 14:24 | -27.39191 | -58.97539 | 8000 ft | 62 kts | 18° |
| 2026-04-11 14:24 | -27.38783 | -58.97378 | 8024 ft | 62 kts | 18° |
| 2026-04-11 14:25 | -27.38375 | -58.97218 | 8049 ft | 62 kts | 18° |
| 2026-04-11 14:25 | -27.37971 | -58.97059 | 8073 ft | 62 kts | 18° |
| 2026-04-11 14:25 | -27.37566 | -58.96899 | 8098 ft | 62 kts | 18° |
| 2026-04-11 14:25 | -27.37169 | -58.96743 | 8122 ft | 61 kts | 18° |
| 2026-04-11 14:26 | -27.36761 | -58.96583 | 8147 ft | 61 kts | 18° |
| 2026-04-11 14:26 | -27.36359 | -58.96425 | 8172 ft | 61 kts | 18° |
| 2026-04-11 14:26 | -27.35959 | -58.96267 | 8196 ft | 61 kts | 18° |
| 2026-04-11 14:26 | -27.35561 | -58.96110 | 8221 ft | 61 kts | 17° |
| 2026-04-11 14:27 | -27.35163 | -58.95954 | 8245 ft | 61 kts | 17° |
| 2026-04-11 14:27 | -27.34767 | -58.95798 | 8270 ft | 60 kts | 17° |
| 2026-04-11 14:27 | -27.34371 | -58.95642 | 8295 ft | 60 kts | 17° |
| 2026-04-11 14:27 | -27.33977 | -58.95487 | 8319 ft | 60 kts | 17° |
| 2026-04-11 14:28 | -27.33585 | -58.95333 | 8344 ft | 60 kts | 17° |
| 2026-04-11 14:28 | -27.33192 | -58.95178 | 8368 ft | 60 kts | 17° |
| 2026-04-11 14:28 | -27.32802 | -58.95023 | 8393 ft | 60 kts | 17° |
| 2026-04-11 14:28 | -27.32453 | -58.94775 | 8429 ft | 58 kts | 29° |
| 2026-04-11 14:29 | -27.32129 | -58.94513 | 8464 ft | 57 kts | 30° |
| 2026-04-11 14:29 | -27.31809 | -58.94244 | 8490 ft | 58 kts | 30° |
| 2026-04-11 14:29 | -27.31490 | -58.93973 | 8517 ft | 58 kts | 30° |
| 2026-04-11 14:29 | -27.31172 | -58.93703 | 8543 ft | 58 kts | 30° |
| 2026-04-11 14:30 | -27.30853 | -58.93431 | 8568 ft | 58 kts | 30° |
| 2026-04-11 14:30 | -27.30535 | -58.93160 | 8593 ft | 58 kts | 30° |
| 2026-04-11 14:30 | -27.30217 | -58.92890 | 8618 ft | 57 kts | 30° |
| 2026-04-11 14:30 | -27.29899 | -58.92619 | 8643 ft | 57 kts | 30° |
| 2026-04-11 14:31 | -27.29581 | -58.92349 | 8667 ft | 57 kts | 30° |
| 2026-04-11 14:31 | -27.29265 | -58.92079 | 8691 ft | 57 kts | 30° |
| 2026-04-11 14:31 | -27.28950 | -58.91811 | 8715 ft | 57 kts | 30° |
| 2026-04-11 14:31 | -27.28634 | -58.91542 | 8739 ft | 57 kts | 31° |
| 2026-04-11 14:32 | -27.28321 | -58.91276 | 8763 ft | 57 kts | 31° |
| 2026-04-11 14:32 | -27.28006 | -58.91008 | 8786 ft | 57 kts | 31° |
| 2026-04-11 14:32 | -27.27694 | -58.90742 | 8810 ft | 56 kts | 31° |
| 2026-04-11 14:32 | -27.27383 | -58.90478 | 8833 ft | 56 kts | 31° |
| 2026-04-11 14:33 | -27.27072 | -58.90214 | 8856 ft | 56 kts | 31° |
| 2026-04-11 14:33 | -27.26764 | -58.89951 | 8879 ft | 56 kts | 31° |
| 2026-04-11 14:33 | -27.26456 | -58.89689 | 8902 ft | 55 kts | 31° |
| 2026-04-11 14:33 | -27.26150 | -58.89429 | 8925 ft | 55 kts | 31° |
| 2026-04-11 14:34 | -27.25845 | -58.89169 | 8947 ft | 55 kts | 31° |
| 2026-04-11 14:34 | -27.25541 | -58.88911 | 8970 ft | 55 kts | 31° |
| 2026-04-11 14:34 | -27.25239 | -58.88654 | 8992 ft | 54 kts | 31° |
| 2026-04-11 14:34 | -27.24938 | -58.88399 | 9015 ft | 54 kts | 31° |
| 2026-04-11 14:35 | -27.24638 | -58.88144 | 9037 ft | 54 kts | 31° |
| 2026-04-11 14:35 | -27.24342 | -58.87893 | 9062 ft | 53 kts | 35° |
| 2026-04-11 14:35 | -27.24049 | -58.87643 | 9084 ft | 53 kts | 34° |
| 2026-04-11 14:35 | -27.23758 | -58.87395 | 9107 ft | 52 kts | 34° |
| 2026-04-11 14:36 | -27.23468 | -58.87149 | 9129 ft | 52 kts | 34° |
| 2026-04-11 14:36 | -27.23181 | -58.86905 | 9151 ft | 52 kts | 34° |
| 2026-04-11 14:36 | -27.22895 | -58.86662 | 9173 ft | 51 kts | 34° |
| 2026-04-11 14:36 | -27.22611 | -58.86421 | 9196 ft | 51 kts | 34° |
| 2026-04-11 14:37 | -27.22330 | -58.86182 | 9218 ft | 51 kts | 34° |
| 2026-04-11 14:37 | -27.22050 | -58.85944 | 9240 ft | 50 kts | 34° |
| 2026-04-11 14:37 | -27.21772 | -58.85708 | 9261 ft | 50 kts | 34° |
| 2026-04-11 14:37 | -27.21496 | -58.85473 | 9283 ft | 50 kts | 34° |
| 2026-04-11 14:38 | -27.21221 | -58.85240 | 9305 ft | 49 kts | 34° |
| 2026-04-11 14:38 | -27.20948 | -58.85008 | 9326 ft | 49 kts | 34° |
| 2026-04-11 14:38 | -27.20678 | -58.84778 | 9347 ft | 49 kts | 34° |
| 2026-04-11 14:38 | -27.20410 | -58.84551 | 9368 ft | 48 kts | 34° |
| 2026-04-11 14:39 | -27.20143 | -58.84324 | 9389 ft | 48 kts | 34° |
| 2026-04-11 14:39 | -27.19877 | -58.84099 | 9410 ft | 48 kts | 34° |
| 2026-04-11 14:39 | -27.19614 | -58.83875 | 9431 ft | 47 kts | 34° |
| 2026-04-11 14:39 | -27.19354 | -58.83654 | 9454 ft | 47 kts | 34° |
| 2026-04-11 14:40 | -27.19100 | -58.83438 | 9479 ft | 46 kts | 33° |
| 2026-04-11 14:40 | -27.18847 | -58.83224 | 9494 ft | 46 kts | 34° |
| 2026-04-11 14:40 | -27.18589 | -58.83005 | 9504 ft | 47 kts | 34° |
| 2026-04-11 14:40 | -27.18323 | -58.82778 | 9509 ft | 49 kts | 32° |
| 2026-04-11 14:41 | -27.18045 | -58.82542 | 9510 ft | 51 kts | 32° |
| 2026-04-11 14:41 | -27.17756 | -58.82297 | 9511 ft | 53 kts | 32° |
| 2026-04-11 14:41 | -27.17455 | -58.82042 | 9508 ft | 55 kts | 33° |
| 2026-04-11 14:41 | -27.17146 | -58.81779 | 9504 ft | 57 kts | 33° |
| 2026-04-11 14:42 | -27.16829 | -58.81509 | 9500 ft | 58 kts | 33° |
| 2026-04-11 14:42 | -27.16506 | -58.81235 | 9496 ft | 59 kts | 33° |
| 2026-04-11 14:42 | -27.16182 | -58.80960 | 9493 ft | 59 kts | 33° |
| 2026-04-11 14:43 | -27.15530 | -58.80407 | 9491 ft | 59 kts | 34° |
| 2026-04-11 14:43 | -27.15205 | -58.80131 | 9489 ft | 59 kts | 34° |
| 2026-04-11 14:43 | -27.14880 | -58.79856 | 9489 ft | 59 kts | 34° |
| 2026-04-11 14:43 | -27.14557 | -58.79581 | 9489 ft | 58 kts | 34° |
| 2026-04-11 14:44 | -27.14233 | -58.79306 | 9490 ft | 58 kts | 34° |
| 2026-04-11 14:44 | -27.13910 | -58.79033 | 9490 ft | 58 kts | 34° |
| 2026-04-11 14:44 | -27.13587 | -58.78759 | 9491 ft | 58 kts | 34° |
| 2026-04-11 14:44 | -27.13265 | -58.78485 | 9491 ft | 58 kts | 34° |
| 2026-04-11 14:45 | -27.12942 | -58.78212 | 9491 ft | 58 kts | 34° |
| 2026-04-11 14:45 | -27.12619 | -58.77937 | 9491 ft | 58 kts | 34° |
| 2026-04-11 14:45 | -27.12295 | -58.77664 | 9495 ft | 58 kts | 34° |
| 2026-04-11 14:45 | -27.11974 | -58.77391 | 9501 ft | 58 kts | 34° |
| 2026-04-11 14:46 | -27.11648 | -58.77115 | 9504 ft | 59 kts | 34° |
| 2026-04-11 14:46 | -27.11320 | -58.76837 | 9504 ft | 59 kts | 34° |
| 2026-04-11 14:46 | -27.10991 | -58.76558 | 9504 ft | 60 kts | 34° |
| 2026-04-11 14:46 | -27.10659 | -58.76276 | 9502 ft | 60 kts | 34° |
| 2026-04-11 14:47 | -27.10325 | -58.75993 | 9501 ft | 60 kts | 34° |
| 2026-04-11 14:47 | -27.09992 | -58.75711 | 9500 ft | 60 kts | 34° |
| 2026-04-11 14:47 | -27.09657 | -58.75427 | 9500 ft | 60 kts | 34° |
| 2026-04-11 14:47 | -27.09323 | -58.75144 | 9500 ft | 60 kts | 34° |
| 2026-04-11 14:48 | -27.08989 | -58.74861 | 9500 ft | 60 kts | 34° |
| 2026-04-11 14:48 | -27.08656 | -58.74579 | 9500 ft | 60 kts | 34° |
| 2026-04-11 14:48 | -27.08322 | -58.74296 | 9500 ft | 60 kts | 34° |
| 2026-04-11 14:48 | -27.07988 | -58.74013 | 9500 ft | 60 kts | 34° |
| 2026-04-11 14:49 | -27.07655 | -58.73731 | 9500 ft | 60 kts | 34° |
| 2026-04-11 14:49 | -27.07321 | -58.73448 | 9500 ft | 60 kts | 34° |
| 2026-04-11 14:49 | -27.06655 | -58.72885 | 9502 ft | 60 kts | 38° |
| 2026-04-11 14:50 | -27.06341 | -58.72619 | 9500 ft | 60 kts | 38° |
| 2026-04-11 14:50 | -27.05991 | -58.72323 | 9500 ft | 60 kts | 38° |
| 2026-04-11 14:50 | -27.05660 | -58.72042 | 9499 ft | 60 kts | 38° |
| 2026-04-11 14:50 | -27.05422 | -58.71841 | 9499 ft | 60 kts | 38° |
| 2026-04-11 14:51 | -27.05089 | -58.71559 | 9500 ft | 60 kts | 38° |
| 2026-04-11 14:51 | -27.04759 | -58.71279 | 9500 ft | 60 kts | 39° |
| 2026-04-11 14:51 | -27.04428 | -58.70999 | 9499 ft | 60 kts | 40° |
| 2026-04-11 14:51 | -27.04097 | -58.70718 | 9500 ft | 60 kts | 41° |
| 2026-04-11 14:52 | -27.03767 | -58.70438 | 9500 ft | 60 kts | 41° |
| 2026-04-11 14:52 | -27.03408 | -58.70201 | 9502 ft | 62 kts | 25° |
| 2026-04-11 14:52 | -27.03011 | -58.70034 | 9511 ft | 61 kts | 29° |
| 2026-04-11 14:52 | -27.02615 | -58.69863 | 9506 ft | 62 kts | 29° |
| 2026-04-11 14:53 | -27.02212 | -58.69691 | 9504 ft | 62 kts | 28° |
| 2026-04-11 14:53 | -27.01809 | -58.69521 | 9502 ft | 62 kts | 28° |
| 2026-04-11 14:53 | -27.01407 | -58.69351 | 9500 ft | 62 kts | 28° |
| 2026-04-11 14:53 | -27.01000 | -58.69179 | 9500 ft | 62 kts | 28° |
| 2026-04-11 14:54 | -27.00595 | -58.69008 | 9499 ft | 62 kts | 28° |
| 2026-04-11 14:54 | -27.00192 | -58.68838 | 9499 ft | 62 kts | 28° |
| 2026-04-11 14:54 | -26.99789 | -58.68668 | 9500 ft | 62 kts | 28° |
| 2026-04-11 14:54 | -26.99386 | -58.68498 | 9500 ft | 62 kts | 28° |
| 2026-04-11 14:55 | -26.98983 | -58.68328 | 9500 ft | 62 kts | 28° |
| 2026-04-11 14:55 | -26.98581 | -58.68158 | 9500 ft | 62 kts | 28° |
| 2026-04-11 14:55 | -26.98179 | -58.67988 | 9500 ft | 62 kts | 29° |
| 2026-04-11 14:55 | -26.97775 | -58.67818 | 9499 ft | 62 kts | 29° |
| 2026-04-11 14:56 | -26.97371 | -58.67647 | 9500 ft | 62 kts | 29° |
| 2026-04-11 14:56 | -26.96968 | -58.67477 | 9500 ft | 62 kts | 29° |
| 2026-04-11 14:56 | -26.96563 | -58.67306 | 9500 ft | 62 kts | 29° |
| 2026-04-11 14:56 | -26.96159 | -58.67136 | 9500 ft | 62 kts | 29° |
| 2026-04-11 14:57 | -26.95754 | -58.66965 | 9500 ft | 62 kts | 29° |
| 2026-04-11 14:57 | -26.95348 | -58.66793 | 9500 ft | 62 kts | 30° |
| 2026-04-11 14:57 | -26.94942 | -58.66622 | 9500 ft | 63 kts | 30° |
| 2026-04-11 14:57 | -26.94535 | -58.66450 | 9500 ft | 63 kts | 30° |
| 2026-04-11 14:58 | -26.94127 | -58.66278 | 9500 ft | 63 kts | 30° |
| 2026-04-11 14:58 | -26.93719 | -58.66105 | 9500 ft | 63 kts | 30° |
| 2026-04-11 14:58 | -26.93309 | -58.65935 | 9500 ft | 64 kts | 26° |
| 2026-04-11 14:58 | -26.92850 | -58.65879 | 9505 ft | 66 kts | 19° |
| 2026-04-11 14:59 | -26.92392 | -58.65826 | 9504 ft | 67 kts | 19° |
| 2026-04-11 14:59 | -26.91928 | -58.65773 | 9502 ft | 68 kts | 19° |
| 2026-04-11 14:59 | -26.91615 | -58.65738 | 9501 ft | 68 kts | 19° |
| 2026-04-11 14:59 | -26.90988 | -58.65669 | 9500 ft | 68 kts | 19° |
| 2026-04-11 15:00 | -26.90517 | -58.65616 | 9499 ft | 69 kts | 19° |
| 2026-04-11 15:00 | -26.90041 | -58.65564 | 9499 ft | 69 kts | 20° |
| 2026-04-11 15:00 | -26.89564 | -58.65511 | 9499 ft | 69 kts | 20° |
| 2026-04-11 15:00 | -26.89070 | -58.65456 | 9470 ft | 75 kts | 22° |
| 2026-04-11 15:01 | -26.88555 | -58.65401 | 9492 ft | 74 kts | 22° |
| 2026-04-11 15:01 | -26.88041 | -58.65344 | 9503 ft | 75 kts | 22° |
| 2026-04-11 15:01 | -26.87523 | -58.65286 | 9508 ft | 76 kts | 22° |
| 2026-04-11 15:01 | -26.86996 | -58.65228 | 9510 ft | 77 kts | 22° |
| 2026-04-11 15:02 | -26.86464 | -58.65168 | 9508 ft | 78 kts | 22° |
| 2026-04-11 15:02 | -26.85925 | -58.65108 | 9505 ft | 78 kts | 22° |
| 2026-04-11 15:02 | -26.85382 | -58.65048 | 9503 ft | 79 kts | 22° |
| 2026-04-11 15:02 | -26.84837 | -58.64987 | 9501 ft | 79 kts | 22° |
| 2026-04-11 15:03 | -26.84293 | -58.64927 | 9500 ft | 79 kts | 22° |
| 2026-04-11 15:03 | -26.83748 | -58.64867 | 9500 ft | 79 kts | 22° |
| 2026-04-11 15:03 | -26.83203 | -58.64806 | 9499 ft | 79 kts | 22° |
| 2026-04-11 15:03 | -26.82659 | -58.64746 | 9499 ft | 79 kts | 22° |
| 2026-04-11 15:04 | -26.82114 | -58.64685 | 9499 ft | 79 kts | 22° |
| 2026-04-11 15:04 | -26.81572 | -58.64625 | 9500 ft | 79 kts | 22° |
| 2026-04-11 15:04 | -26.81027 | -58.64565 | 9500 ft | 79 kts | 22° |
| 2026-04-11 15:04 | -26.80480 | -58.64504 | 9496 ft | 80 kts | 22° |
| 2026-04-11 15:05 | -26.79927 | -58.64443 | 9497 ft | 80 kts | 22° |
| 2026-04-11 15:05 | -26.79374 | -58.64382 | 9499 ft | 80 kts | 22° |
| 2026-04-11 15:05 | -26.78818 | -58.64320 | 9501 ft | 81 kts | 22° |
| 2026-04-11 15:05 | -26.78260 | -58.64258 | 9501 ft | 81 kts | 22° |
| 2026-04-11 15:06 | -26.77698 | -58.64196 | 9501 ft | 82 kts | 22° |
| 2026-04-11 15:06 | -26.77132 | -58.64133 | 9500 ft | 82 kts | 22° |
| 2026-04-11 15:06 | -26.76563 | -58.64070 | 9500 ft | 83 kts | 22° |
| 2026-04-11 15:06 | -26.75989 | -58.64007 | 9499 ft | 83 kts | 22° |
| 2026-04-11 15:07 | -26.75414 | -58.63943 | 9499 ft | 84 kts | 21° |
| 2026-04-11 15:07 | -26.74834 | -58.63879 | 9499 ft | 84 kts | 21° |
| 2026-04-11 15:07 | -26.74251 | -58.63814 | 9499 ft | 85 kts | 21° |
| 2026-04-11 15:07 | -26.73663 | -58.63749 | 9499 ft | 85 kts | 21° |
| 2026-04-11 15:08 | -26.73071 | -58.63684 | 9499 ft | 86 kts | 21° |
| 2026-04-11 15:08 | -26.72473 | -58.63618 | 9500 ft | 87 kts | 21° |
| 2026-04-11 15:08 | -26.71872 | -58.63551 | 9500 ft | 88 kts | 21° |
| 2026-04-11 15:08 | -26.71228 | -58.63476 | 9456 ft | 97 kts | 13° |
| 2026-04-11 15:09 | -26.70562 | -58.63409 | 9488 ft | 96 kts | 13° |
| 2026-04-11 15:09 | -26.69901 | -58.63339 | 9503 ft | 96 kts | 13° |
| 2026-04-11 15:09 | -26.69234 | -58.63265 | 9512 ft | 97 kts | 13° |
| 2026-04-11 15:09 | -26.68554 | -58.63189 | 9516 ft | 99 kts | 13° |
| 2026-04-11 15:10 | -26.67863 | -58.63110 | 9516 ft | 101 kts | 14° |
| 2026-04-11 15:10 | -26.67160 | -58.63031 | 9512 ft | 102 kts | 13° |
| 2026-04-11 15:10 | -26.66451 | -58.62950 | 9508 ft | 103 kts | 13° |
| 2026-04-11 15:10 | -26.65738 | -58.62857 | 9501 ft | 102 kts | 21° |
| 2026-04-11 15:11 | -26.65204 | -58.62482 | 9537 ft | 85 kts | 56° |
| 2026-04-11 15:11 | -26.64750 | -58.62048 | 9531 ft | 87 kts | 58° |
| 2026-04-11 15:11 | -26.64295 | -58.61585 | 9520 ft | 89 kts | 58° |
| 2026-04-11 15:11 | -26.63837 | -58.61108 | 9510 ft | 91 kts | 59° |
| 2026-04-11 15:12 | -26.63375 | -58.60624 | 9503 ft | 92 kts | 58° |
| 2026-04-11 15:12 | -26.62908 | -58.60133 | 9486 ft | 95 kts | 54° |
| 2026-04-11 15:12 | -26.62405 | -58.59599 | 9467 ft | 100 kts | 48° |
| 2026-04-11 15:12 | -26.61897 | -58.59068 | 9485 ft | 101 kts | 39° |
| 2026-04-11 15:13 | -26.61385 | -58.58535 | 9502 ft | 101 kts | 38° |
| 2026-04-11 15:13 | -26.60868 | -58.57995 | 9512 ft | 103 kts | 38° |
| 2026-04-11 15:13 | -26.60346 | -58.57447 | 9516 ft | 104 kts | 38° |
| 2026-04-11 15:13 | -26.59816 | -58.56889 | 9516 ft | 106 kts | 38° |
| 2026-04-11 15:14 | -26.59278 | -58.56321 | 9513 ft | 107 kts | 38° |
| 2026-04-11 15:14 | -26.58735 | -58.55747 | 9508 ft | 108 kts | 38° |
| 2026-04-11 15:14 | -26.58188 | -58.55170 | 9504 ft | 109 kts | 38° |
| 2026-04-11 15:14 | -26.57640 | -58.54592 | 9502 ft | 109 kts | 37° |
| 2026-04-11 15:15 | -26.57092 | -58.54015 | 9500 ft | 109 kts | 37° |
| 2026-04-11 15:15 | -26.56545 | -58.53439 | 9499 ft | 108 kts | 37° |
| 2026-04-11 15:15 | -26.55998 | -58.52863 | 9499 ft | 108 kts | 37° |
| 2026-04-11 15:15 | -26.55451 | -58.52287 | 9499 ft | 108 kts | 37° |
| 2026-04-11 15:16 | -26.54906 | -58.51714 | 9499 ft | 108 kts | 37° |
| 2026-04-11 15:16 | -26.54361 | -58.51141 | 9500 ft | 108 kts | 37° |
| 2026-04-11 15:16 | -26.53838 | -58.50575 | 9540 ft | 100 kts | 27° |
| 2026-04-11 15:16 | -26.53328 | -58.50040 | 9512 ft | 101 kts | 27° |
| 2026-04-11 15:17 | -26.52819 | -58.49505 | 9500 ft | 100 kts | 26° |
| 2026-04-11 15:17 | -26.52321 | -58.48981 | 9494 ft | 98 kts | 25° |
| 2026-04-11 15:17 | -26.51834 | -58.48469 | 9493 ft | 95 kts | 25° |
| 2026-04-11 15:17 | -26.51357 | -58.47968 | 9493 ft | 93 kts | 24° |
| 2026-04-11 15:18 | -26.50893 | -58.47478 | 9506 ft | 89 kts | 24° |
| 2026-04-11 15:18 | -26.50450 | -58.47012 | 9503 ft | 87 kts | 22° |
| 2026-04-11 15:18 | -26.50009 | -58.46551 | 9495 ft | 87 kts | 22° |
| 2026-04-11 15:18 | -26.49574 | -58.46093 | 9492 ft | 85 kts | 22° |
| 2026-04-11 15:19 | -26.49144 | -58.45643 | 9492 ft | 84 kts | 21° |
| 2026-04-11 15:19 | -26.48720 | -58.45198 | 9494 ft | 84 kts | 21° |
| 2026-04-11 15:19 | -26.48299 | -58.44756 | 9497 ft | 83 kts | 21° |
| 2026-04-11 15:19 | -26.47881 | -58.44318 | 9499 ft | 83 kts | 21° |
| 2026-04-11 15:20 | -26.47462 | -58.43879 | 9500 ft | 83 kts | 21° |
| 2026-04-11 15:20 | -26.47045 | -58.43441 | 9500 ft | 83 kts | 21° |
| 2026-04-11 15:20 | -26.46628 | -58.43003 | 9500 ft | 83 kts | 21° |
| 2026-04-11 15:20 | -26.46211 | -58.42565 | 9501 ft | 83 kts | 21° |
| 2026-04-11 15:21 | -26.45794 | -58.42127 | 9500 ft | 83 kts | 21° |
| 2026-04-11 15:21 | -26.45378 | -58.41689 | 9505 ft | 82 kts | 21° |
| 2026-04-11 15:21 | -26.44968 | -58.41258 | 9505 ft | 81 kts | 21° |
| 2026-04-11 15:21 | -26.44559 | -58.40829 | 9501 ft | 81 kts | 21° |
| 2026-04-11 15:22 | -26.44152 | -58.40401 | 9500 ft | 80 kts | 21° |
| 2026-04-11 15:22 | -26.43747 | -58.39976 | 9499 ft | 80 kts | 20° |
| 2026-04-11 15:22 | -26.43346 | -58.39555 | 9499 ft | 79 kts | 20° |
| 2026-04-11 15:22 | -26.42946 | -58.39135 | 9499 ft | 79 kts | 20° |
| 2026-04-11 15:23 | -26.42550 | -58.38719 | 9500 ft | 78 kts | 20° |
| 2026-04-11 15:23 | -26.42156 | -58.38306 | 9500 ft | 78 kts | 20° |
| 2026-04-11 15:23 | -26.41764 | -58.37895 | 9500 ft | 77 kts | 20° |
| 2026-04-11 15:23 | -26.41374 | -58.37486 | 9500 ft | 77 kts | 20° |
| 2026-04-11 15:24 | -26.40986 | -58.37079 | 9500 ft | 77 kts | 20° |
| 2026-04-11 15:24 | -26.40600 | -58.36673 | 9500 ft | 76 kts | 20° |
| 2026-04-11 15:24 | -26.40217 | -58.36270 | 9500 ft | 76 kts | 20° |
| 2026-04-11 15:24 | -26.39837 | -58.35869 | 9501 ft | 75 kts | 20° |
| 2026-04-11 15:25 | -26.39442 | -58.35521 | 9500 ft | 71 kts | 12° |
| 2026-04-11 15:25 | -26.39038 | -58.35215 | 9498 ft | 70 kts | 11° |
| 2026-04-11 15:25 | -26.38634 | -58.34915 | 9499 ft | 70 kts | 11° |
| 2026-04-11 15:25 | -26.38233 | -58.34616 | 9499 ft | 70 kts | 11° |
| 2026-04-11 15:26 | -26.37830 | -58.34318 | 9500 ft | 69 kts | 11° |
| 2026-04-11 15:26 | -26.37429 | -58.34020 | 9500 ft | 69 kts | 11° |
| 2026-04-11 15:26 | -26.37028 | -58.33723 | 9500 ft | 69 kts | 11° |
| 2026-04-11 15:26 | -26.36627 | -58.33426 | 9505 ft | 68 kts | 14° |
| 2026-04-11 15:27 | -26.36252 | -58.33145 | 9517 ft | 65 kts | 13° |
| 2026-04-11 15:27 | -26.35875 | -58.32866 | 9502 ft | 65 kts | 13° |
| 2026-04-11 15:27 | -26.35500 | -58.32587 | 9496 ft | 64 kts | 13° |
| 2026-04-11 15:27 | -26.35130 | -58.32314 | 9494 ft | 63 kts | 13° |
| 2026-04-11 15:28 | -26.34766 | -58.32044 | 9494 ft | 63 kts | 13° |
| 2026-04-11 15:28 | -26.34407 | -58.31778 | 9496 ft | 62 kts | 13° |
| 2026-04-11 15:28 | -26.34051 | -58.31514 | 9498 ft | 61 kts | 13° |
| 2026-04-11 15:28 | -26.33698 | -58.31253 | 9500 ft | 61 kts | 13° |
| 2026-04-11 15:29 | -26.33347 | -58.30993 | 9500 ft | 61 kts | 13° |
| 2026-04-11 15:29 | -26.32997 | -58.30734 | 9500 ft | 61 kts | 13° |
| 2026-04-11 15:29 | -26.32648 | -58.30475 | 9500 ft | 60 kts | 13° |
| 2026-04-11 15:29 | -26.32298 | -58.30216 | 9500 ft | 60 kts | 13° |
| 2026-04-11 15:30 | -26.31952 | -58.29959 | 9500 ft | 60 kts | 13° |
| 2026-04-11 15:30 | -26.31605 | -58.29703 | 9500 ft | 60 kts | 13° |
| 2026-04-11 15:30 | -26.31374 | -58.29532 | 9500 ft | 60 kts | 13° |
| 2026-04-11 15:30 | -26.30915 | -58.29192 | 9500 ft | 60 kts | 13° |
| 2026-04-11 15:31 | -26.30571 | -58.28937 | 9500 ft | 59 kts | 14° |
| 2026-04-11 15:31 | -26.30228 | -58.28683 | 9500 ft | 59 kts | 14° |
| 2026-04-11 15:31 | -26.29887 | -58.28431 | 9500 ft | 59 kts | 14° |
| 2026-04-11 15:31 | -26.29546 | -58.28178 | 9500 ft | 59 kts | 14° |
| 2026-04-11 15:32 | -26.29206 | -58.27926 | 9500 ft | 59 kts | 14° |
| 2026-04-11 15:32 | -26.28867 | -58.27676 | 9500 ft | 59 kts | 14° |
| 2026-04-11 15:32 | -26.28528 | -58.27425 | 9500 ft | 59 kts | 14° |
| 2026-04-11 15:32 | -26.28303 | -58.27259 | 9500 ft | 58 kts | 14° |
| 2026-04-11 15:33 | -26.27853 | -58.26925 | 9500 ft | 58 kts | 14° |
| 2026-04-11 15:33 | -26.27517 | -58.26677 | 9500 ft | 58 kts | 14° |
| 2026-04-11 15:33 | -26.27180 | -58.26427 | 9500 ft | 58 kts | 14° |
| 2026-04-11 15:33 | -26.26844 | -58.26179 | 9500 ft | 58 kts | 14° |
| 2026-04-11 15:34 | -26.26507 | -58.25930 | 9500 ft | 58 kts | 14° |
| 2026-04-11 15:34 | -26.26171 | -58.25681 | 9500 ft | 58 kts | 14° |
| 2026-04-11 15:34 | -26.25836 | -58.25434 | 9500 ft | 58 kts | 14° |
| 2026-04-11 15:34 | -26.25500 | -58.25185 | 9500 ft | 58 kts | 14° |
| 2026-04-11 15:35 | -26.25164 | -58.24937 | 9500 ft | 58 kts | 14° |
| 2026-04-11 15:35 | -26.24829 | -58.24689 | 9500 ft | 58 kts | 14° |
| 2026-04-11 15:35 | -26.24492 | -58.24440 | 9500 ft | 58 kts | 14° |
| 2026-04-11 15:35 | -26.24157 | -58.24192 | 9500 ft | 58 kts | 14° |
| 2026-04-11 15:36 | -26.23821 | -58.23943 | 9501 ft | 58 kts | 14° |
| 2026-04-11 15:36 | -26.23485 | -58.23695 | 9500 ft | 58 kts | 14° |
| 2026-04-11 15:36 | -26.23149 | -58.23447 | 9500 ft | 58 kts | 14° |
| 2026-04-11 15:36 | -26.22812 | -58.23197 | 9500 ft | 58 kts | 14° |
| 2026-04-11 15:37 | -26.22476 | -58.22949 | 9500 ft | 58 kts | 14° |
| 2026-04-11 15:37 | -26.22140 | -58.22701 | 9500 ft | 58 kts | 14° |
| 2026-04-11 15:37 | -26.21804 | -58.22453 | 9500 ft | 58 kts | 14° |
| 2026-04-11 15:37 | -26.21467 | -58.22203 | 9500 ft | 58 kts | 14° |
| 2026-04-11 15:38 | -26.21130 | -58.21954 | 9500 ft | 58 kts | 14° |
| 2026-04-11 15:38 | -26.20793 | -58.21706 | 9500 ft | 58 kts | 14° |
| 2026-04-11 15:38 | -26.20455 | -58.21456 | 9500 ft | 58 kts | 14° |
| 2026-04-11 15:38 | -26.20118 | -58.21207 | 9500 ft | 58 kts | 14° |
| 2026-04-11 15:39 | -26.19780 | -58.20957 | 9500 ft | 58 kts | 14° |
| 2026-04-11 15:39 | -26.19441 | -58.20707 | 9500 ft | 59 kts | 14° |
| 2026-04-11 15:39 | -26.19103 | -58.20457 | 9500 ft | 59 kts | 13° |
| 2026-04-11 15:39 | -26.18760 | -58.20204 | 9497 ft | 59 kts | 13° |
| 2026-04-11 15:40 | -26.18417 | -58.19950 | 9500 ft | 59 kts | 13° |
| 2026-04-11 15:40 | -26.18075 | -58.19695 | 9501 ft | 59 kts | 13° |
| 2026-04-11 15:40 | -26.17724 | -58.19485 | 9503 ft | 57 kts | 8° |
| 2026-04-11 15:40 | -26.17371 | -58.19293 | 9504 ft | 57 kts | 7° |
| 2026-04-11 15:41 | -26.17014 | -58.19100 | 9502 ft | 57 kts | 7° |
| 2026-04-11 15:41 | -26.16657 | -58.18906 | 9501 ft | 57 kts | 7° |
| 2026-04-11 15:41 | -26.16300 | -58.18713 | 9500 ft | 57 kts | 7° |
| 2026-04-11 15:41 | -26.15942 | -58.18519 | 9500 ft | 57 kts | 7° |
| 2026-04-11 15:42 | -26.15584 | -58.18325 | 9500 ft | 57 kts | 7° |
| 2026-04-11 15:42 | -26.15227 | -58.18132 | 9500 ft | 57 kts | 7° |
| 2026-04-11 15:42 | -26.14871 | -58.17940 | 9500 ft | 57 kts | 7° |
| 2026-04-11 15:43 | -26.14157 | -58.17554 | 9500 ft | 57 kts | 7° |
| 2026-04-11 15:43 | -26.13800 | -58.17361 | 9500 ft | 57 kts | 7° |
| 2026-04-11 15:43 | -26.13563 | -58.17232 | 9500 ft | 57 kts | 7° |
| 2026-04-11 15:43 | -26.13088 | -58.16975 | 9500 ft | 57 kts | 7° |
| 2026-04-11 15:44 | -26.12731 | -58.16782 | 9500 ft | 57 kts | 7° |
| 2026-04-11 15:44 | -26.12375 | -58.16590 | 9500 ft | 57 kts | 7° |
| 2026-04-11 15:44 | -26.12017 | -58.16396 | 9500 ft | 57 kts | 7° |
| 2026-04-11 15:44 | -26.11660 | -58.16203 | 9500 ft | 57 kts | 7° |
| 2026-04-11 15:45 | -26.11303 | -58.16010 | 9500 ft | 57 kts | 7° |
| 2026-04-11 15:45 | -26.10946 | -58.15817 | 9500 ft | 57 kts | 7° |
| 2026-04-11 15:45 | -26.10588 | -58.15624 | 9500 ft | 57 kts | 7° |
| 2026-04-11 15:45 | -26.10229 | -58.15430 | 9499 ft | 58 kts | 7° |
| 2026-04-11 15:46 | -26.09869 | -58.15235 | 9499 ft | 58 kts | 7° |
| 2026-04-11 15:46 | -26.09508 | -58.15040 | 9500 ft | 58 kts | 6° |
| 2026-04-11 15:46 | -26.09146 | -58.14845 | 9501 ft | 58 kts | 6° |
| 2026-04-11 15:46 | -26.08784 | -58.14649 | 9501 ft | 58 kts | 6° |
| 2026-04-11 15:47 | -26.08421 | -58.14453 | 9501 ft | 58 kts | 6° |
| 2026-04-11 15:47 | -26.08056 | -58.14256 | 9500 ft | 58 kts | 6° |
| 2026-04-11 15:47 | -26.07691 | -58.14059 | 9500 ft | 59 kts | 6° |
| 2026-04-11 15:47 | -26.07325 | -58.13861 | 9500 ft | 59 kts | 6° |
| 2026-04-11 15:48 | -26.06958 | -58.13663 | 9500 ft | 59 kts | 6° |
| 2026-04-11 15:48 | -26.06592 | -58.13465 | 9500 ft | 59 kts | 6° |
| 2026-04-11 15:48 | -26.06223 | -58.13266 | 9500 ft | 59 kts | 6° |
| 2026-04-11 15:48 | -26.05856 | -58.13068 | 9500 ft | 59 kts | 6° |
| 2026-04-11 15:49 | -26.05487 | -58.12869 | 9500 ft | 59 kts | 6° |
| 2026-04-11 15:49 | -26.05117 | -58.12669 | 9500 ft | 59 kts | 6° |
| 2026-04-11 15:49 | -26.04747 | -58.12469 | 9498 ft | 60 kts | 2° |
| 2026-04-11 15:49 | -26.04358 | -58.12261 | 9489 ft | 63 kts | 3° |
| 2026-04-11 15:50 | -26.03970 | -58.12051 | 9499 ft | 62 kts | 3° |
| 2026-04-11 15:50 | -26.03579 | -58.11840 | 9503 ft | 63 kts | 3° |
| 2026-04-11 15:50 | -26.03185 | -58.11627 | 9505 ft | 63 kts | 3° |
| 2026-04-11 15:50 | -26.02787 | -58.11413 | 9504 ft | 64 kts | 3° |
| 2026-04-11 15:51 | -26.02385 | -58.11196 | 9503 ft | 65 kts | 3° |
| 2026-04-11 15:51 | -26.01981 | -58.10977 | 9501 ft | 65 kts | 4° |
| 2026-04-11 15:51 | -26.01574 | -58.10758 | 9500 ft | 65 kts | 4° |
| 2026-04-11 15:51 | -26.01166 | -58.10537 | 9499 ft | 65 kts | 4° |
| 2026-04-11 15:52 | -26.00758 | -58.10317 | 9499 ft | 65 kts | 4° |
| 2026-04-11 15:52 | -26.00348 | -58.10096 | 9499 ft | 66 kts | 3° |
| 2026-04-11 15:52 | -25.99938 | -58.09875 | 9500 ft | 66 kts | 3° |
| 2026-04-11 15:52 | -25.99528 | -58.09654 | 9500 ft | 66 kts | 3° |
| 2026-04-11 15:53 | -25.99116 | -58.09432 | 9500 ft | 66 kts | 3° |
| 2026-04-11 15:53 | -25.98702 | -58.09209 | 9500 ft | 66 kts | 3° |
| 2026-04-11 15:53 | -25.98452 | -58.09074 | 9500 ft | 66 kts | 3° |
| 2026-04-11 15:53 | -25.97897 | -58.08775 | 9500 ft | 67 kts | 3° |
| 2026-04-11 15:54 | -25.97479 | -58.08549 | 9500 ft | 67 kts | 3° |
| 2026-04-11 15:54 | -25.97201 | -58.08400 | 9500 ft | 67 kts | 3° |
| 2026-04-11 15:54 | -25.96638 | -58.08096 | 9500 ft | 68 kts | 3° |
| 2026-04-11 15:54 | -25.96214 | -58.07868 | 9500 ft | 68 kts | 3° |
| 2026-04-11 15:55 | -25.95790 | -58.07639 | 9500 ft | 68 kts | 3° |
| 2026-04-11 15:55 | -25.95363 | -58.07409 | 9500 ft | 68 kts | 2° |
| 2026-04-11 15:55 | -25.94938 | -58.07180 | 9500 ft | 69 kts | 2° |
| 2026-04-11 15:55 | -25.94508 | -58.06948 | 9500 ft | 69 kts | 2° |
| 2026-04-11 15:56 | -25.94075 | -58.06715 | 9500 ft | 69 kts | 2° |
| 2026-04-11 15:56 | -25.93642 | -58.06482 | 9500 ft | 69 kts | 2° |
| 2026-04-11 15:56 | -25.93210 | -58.06250 | 9500 ft | 70 kts | 2° |
| 2026-04-11 15:56 | -25.92774 | -58.06014 | 9500 ft | 70 kts | 2° |
| 2026-04-11 15:57 | -25.92331 | -58.05778 | 9494 ft | 72 kts | 2° |
| 2026-04-11 15:57 | -25.91884 | -58.05536 | 9500 ft | 71 kts | 2° |
| 2026-04-11 15:57 | -25.91440 | -58.05297 | 9502 ft | 72 kts | 2° |
| 2026-04-11 15:57 | -25.90988 | -58.05054 | 9503 ft | 72 kts | 2° |
| 2026-04-11 15:58 | -25.90537 | -58.04811 | 9503 ft | 72 kts | 2° |
| 2026-04-11 15:58 | -25.90083 | -58.04566 | 9502 ft | 73 kts | 2° |
| 2026-04-11 15:58 | -25.89628 | -58.04321 | 9501 ft | 73 kts | 2° |
| 2026-04-11 15:58 | -25.89171 | -58.04075 | 9500 ft | 73 kts | 2° |
| 2026-04-11 15:59 | -25.88716 | -58.03830 | 9499 ft | 73 kts | 2° |
| 2026-04-11 15:59 | -25.88258 | -58.03584 | 9499 ft | 73 kts | 2° |
| 2026-04-11 15:59 | -25.87798 | -58.03336 | 9499 ft | 74 kts | 2° |
| 2026-04-11 15:59 | -25.87337 | -58.03088 | 9499 ft | 74 kts | 2° |
| 2026-04-11 16:00 | -25.86876 | -58.02840 | 9500 ft | 74 kts | 2° |
| 2026-04-11 16:00 | -25.86414 | -58.02592 | 9500 ft | 74 kts | 2° |
| 2026-04-11 16:00 | -25.85949 | -58.02342 | 9500 ft | 75 kts | 2° |
| 2026-04-11 16:00 | -25.85485 | -58.02092 | 9500 ft | 75 kts | 2° |
| 2026-04-11 16:01 | -25.85014 | -58.01839 | 9500 ft | 75 kts | 2° |
| 2026-04-11 16:01 | -25.84542 | -58.01585 | 9500 ft | 76 kts | 2° |
| 2026-04-11 16:01 | -25.84071 | -58.01332 | 9500 ft | 76 kts | 2° |
| 2026-04-11 16:01 | -25.83556 | -58.01073 | 9421 ft | 92 kts | 4° |
| 2026-04-11 16:02 | -25.82978 | -58.00768 | 9455 ft | 91 kts | 9° |
| 2026-04-11 16:02 | -25.82386 | -58.00461 | 9459 ft | 95 kts | 22° |
| 2026-04-11 16:02 | -25.81797 | -58.00142 | 9493 ft | 94 kts | 21° |
| 2026-04-11 16:02 | -25.81205 | -57.99822 | 9513 ft | 96 kts | 22° |
| 2026-04-11 16:03 | -25.80601 | -57.99496 | 9526 ft | 98 kts | 23° |
| 2026-04-11 16:03 | -25.79981 | -57.99160 | 9533 ft | 101 kts | 24° |
| 2026-04-11 16:03 | -25.79343 | -57.98814 | 9535 ft | 104 kts | 25° |
| 2026-04-11 16:03 | -25.78906 | -57.98577 | 9534 ft | 106 kts | 25° |
| 2026-04-11 16:04 | -25.78006 | -57.98089 | 9526 ft | 110 kts | 26° |
| 2026-04-11 16:04 | -25.77487 | -57.97808 | 9519 ft | 111 kts | 26° |
| 2026-04-11 16:04 | -25.76612 | -57.97336 | 9509 ft | 113 kts | 26° |
| 2026-04-11 16:04 | -25.75908 | -57.96956 | 9504 ft | 113 kts | 26° |
| 2026-04-11 16:05 | -25.75201 | -57.96576 | 9500 ft | 113 kts | 26° |
| 2026-04-11 16:05 | -25.74497 | -57.96196 | 9499 ft | 113 kts | 24° |
| 2026-04-11 16:05 | -25.73791 | -57.95817 | 9498 ft | 113 kts | 24° |
| 2026-04-11 16:06 | -25.72386 | -57.95063 | 9496 ft | 112 kts | 22° |
| 2026-04-11 16:06 | -25.71686 | -57.94687 | 9492 ft | 112 kts | 21° |
| 2026-04-11 16:06 | -25.70984 | -57.94310 | 9490 ft | 112 kts | 20° |
| 2026-04-11 16:06 | -25.70518 | -57.94059 | 9489 ft | 112 kts | 19° |
| 2026-04-11 16:07 | -25.69592 | -57.93562 | 9488 ft | 111 kts | 17° |
| 2026-04-11 16:07 | -25.69133 | -57.93316 | 9488 ft | 110 kts | 17° |
| 2026-04-11 16:07 | -25.68222 | -57.92826 | 9488 ft | 109 kts | 15° |
| 2026-04-11 16:07 | -25.67546 | -57.92463 | 9488 ft | 108 kts | 14° |
| 2026-04-11 16:08 | -25.66877 | -57.92104 | 9487 ft | 107 kts | 13° |
| 2026-04-11 16:08 | -25.66209 | -57.91747 | 9483 ft | 106 kts | 14° |
| 2026-04-11 16:08 | -25.65543 | -57.91391 | 9479 ft | 106 kts | 14° |
| 2026-04-11 16:08 | -25.64882 | -57.91037 | 9480 ft | 106 kts | 14° |
| 2026-04-11 16:09 | -25.64222 | -57.90683 | 9480 ft | 105 kts | 14° |
| 2026-04-11 16:09 | -25.63572 | -57.90336 | 9481 ft | 105 kts | 14° |
| 2026-04-11 16:09 | -25.62905 | -57.89979 | 9482 ft | 105 kts | 14° |
| 2026-04-11 16:09 | -25.62246 | -57.89627 | 9482 ft | 105 kts | 14° |
| 2026-04-11 16:10 | -25.61587 | -57.89274 | 9482 ft | 106 kts | 14° |
| 2026-04-11 16:10 | -25.60929 | -57.88924 | 9472 ft | 108 kts | 22° |
| 2026-04-11 16:10 | -25.60246 | -57.88574 | 9494 ft | 104 kts | 36° |
| 2026-04-11 16:10 | -25.59816 | -57.88340 | 9496 ft | 104 kts | 38° |
| 2026-04-11 16:11 | -25.58956 | -57.87871 | 9497 ft | 103 kts | 39° |
| 2026-04-11 16:11 | -25.58530 | -57.87640 | 9494 ft | 102 kts | 40° |
| 2026-04-11 16:11 | -25.57901 | -57.87300 | 9490 ft | 100 kts | 41° |
| 2026-04-11 16:11 | -25.57111 | -57.86881 | 9566 ft | 82 kts | 40° |
| 2026-04-11 16:12 | -25.56622 | -57.86610 | 9502 ft | 80 kts | 40° |
| 2026-04-11 16:12 | -25.56136 | -57.86345 | 9460 ft | 75 kts | 39° |
| 2026-04-11 16:12 | -25.55680 | -57.86101 | 9446 ft | 71 kts | 39° |
| 2026-04-11 16:12 | -25.55252 | -57.85872 | 9447 ft | 66 kts | 40° |
| 2026-04-11 16:13 | -25.54849 | -57.85657 | 9454 ft | 63 kts | 40° |
| 2026-04-11 16:13 | -25.54461 | -57.85449 | 9462 ft | 61 kts | 40° |
| 2026-04-11 16:13 | -25.54085 | -57.85247 | 9469 ft | 60 kts | 40° |
| 2026-04-11 16:13 | -25.53840 | -57.85116 | 9472 ft | 59 kts | 40° |
| 2026-04-11 16:14 | -25.53344 | -57.84851 | 9477 ft | 59 kts | 40° |
| 2026-04-11 16:14 | -25.52974 | -57.84653 | 9479 ft | 59 kts | 40° |
| 2026-04-11 16:14 | -25.52605 | -57.84455 | 9480 ft | 59 kts | 40° |
| 2026-04-11 16:14 | -25.52234 | -57.84257 | 9480 ft | 59 kts | 40° |
| 2026-04-11 16:15 | -25.51989 | -57.84126 | 9479 ft | 59 kts | 40° |
| 2026-04-11 16:15 | -25.51617 | -57.83927 | 9479 ft | 59 kts | 40° |
| 2026-04-11 16:15 | -25.51121 | -57.83662 | 9478 ft | 59 kts | 39° |
| 2026-04-11 16:15 | -25.50750 | -57.83464 | 9478 ft | 59 kts | 39° |
| 2026-04-11 16:16 | -25.50378 | -57.83265 | 9478 ft | 59 kts | 40° |
| 2026-04-11 16:16 | -25.50006 | -57.83066 | 9478 ft | 59 kts | 40° |
| 2026-04-11 16:16 | -25.49635 | -57.82868 | 9478 ft | 59 kts | 40° |
| 2026-04-11 16:16 | -25.49264 | -57.82670 | 9478 ft | 59 kts | 40° |
| 2026-04-11 16:17 | -25.48893 | -57.82472 | 9478 ft | 59 kts | 40° |
| 2026-04-11 16:17 | -25.48650 | -57.82338 | 9496 ft | 56 kts | 31° |
| 2026-04-11 16:17 | -25.48303 | -57.82153 | 9485 ft | 57 kts | 30° |
| 2026-04-11 16:17 | -25.47829 | -57.81902 | 9474 ft | 56 kts | 30° |
| 2026-04-11 16:18 | -25.47479 | -57.81715 | 9470 ft | 56 kts | 29° |
| 2026-04-11 16:18 | -25.47248 | -57.81592 | 9470 ft | 55 kts | 29° |
| 2026-04-11 16:18 | -25.46906 | -57.81409 | 9470 ft | 54 kts | 29° |
| 2026-04-11 16:18 | -25.46567 | -57.81228 | 9472 ft | 54 kts | 28° |
| 2026-04-11 16:19 | -25.46230 | -57.81048 | 9474 ft | 54 kts | 28° |
| 2026-04-11 16:19 | -25.45783 | -57.80809 | 9475 ft | 54 kts | 28° |
| 2026-04-11 16:19 | -25.45448 | -57.80630 | 9475 ft | 54 kts | 27° |
| 2026-04-11 16:19 | -25.45114 | -57.80452 | 9475 ft | 54 kts | 27° |
| 2026-04-11 16:20 | -25.44891 | -57.80333 | 9475 ft | 54 kts | 27° |
| 2026-04-11 16:20 | -25.44444 | -57.80094 | 9475 ft | 54 kts | 27° |
| 2026-04-11 16:20 | -25.44221 | -57.79975 | 9474 ft | 54 kts | 27° |
| 2026-04-11 16:20 | -25.43773 | -57.79736 | 9474 ft | 54 kts | 26° |
| 2026-04-11 16:21 | -25.43438 | -57.79557 | 9474 ft | 54 kts | 26° |
| 2026-04-11 16:21 | -25.43104 | -57.79378 | 9474 ft | 54 kts | 26° |
| 2026-04-11 16:21 | -25.42769 | -57.79199 | 9474 ft | 54 kts | 26° |
| 2026-04-11 16:21 | -25.42434 | -57.79020 | 9474 ft | 54 kts | 26° |
| 2026-04-11 16:22 | -25.42211 | -57.78900 | 9474 ft | 54 kts | 25° |
| 2026-04-11 16:22 | -25.41762 | -57.78669 | 9474 ft | 54 kts | 25° |
| 2026-04-11 16:22 | -25.41538 | -57.78552 | 9474 ft | 54 kts | 25° |
| 2026-04-11 16:22 | -25.41202 | -57.78377 | 9474 ft | 54 kts | 25° |
| 2026-04-11 16:23 | -25.40753 | -57.78144 | 9474 ft | 54 kts | 25° |
| 2026-04-11 16:23 | -25.40417 | -57.77969 | 9474 ft | 54 kts | 25° |
| 2026-04-11 16:23 | -25.40193 | -57.77853 | 9474 ft | 54 kts | 25° |
| 2026-04-11 16:23 | -25.39744 | -57.77619 | 9474 ft | 54 kts | 25° |
| 2026-04-11 16:24 | -25.39407 | -57.77444 | 9474 ft | 54 kts | 25° |
| 2026-04-11 16:24 | -25.39072 | -57.77270 | 9474 ft | 54 kts | 24° |
| 2026-04-11 16:24 | -25.38734 | -57.77094 | 9473 ft | 54 kts | 24° |
| 2026-04-11 16:24 | -25.38397 | -57.76919 | 9473 ft | 54 kts | 24° |
| 2026-04-11 16:25 | -25.38172 | -57.76802 | 9473 ft | 54 kts | 24° |
| 2026-04-11 16:25 | -25.37724 | -57.76569 | 9473 ft | 54 kts | 24° |
| 2026-04-11 16:25 | -25.37387 | -57.76394 | 9473 ft | 54 kts | 24° |
| 2026-04-11 16:25 | -25.37050 | -57.76219 | 9473 ft | 54 kts | 24° |
| 2026-04-11 16:26 | -25.36713 | -57.76043 | 9473 ft | 54 kts | 24° |
| 2026-04-11 16:26 | -25.36377 | -57.75869 | 9473 ft | 54 kts | 24° |
| 2026-04-11 16:26 | -25.36040 | -57.75694 | 9473 ft | 54 kts | 24° |
| 2026-04-11 16:26 | -25.35703 | -57.75519 | 9473 ft | 54 kts | 24° |
| 2026-04-11 16:27 | -25.35478 | -57.75402 | 9473 ft | 54 kts | 24° |
| 2026-04-11 16:27 | -25.35029 | -57.75168 | 9473 ft | 54 kts | 24° |
| 2026-04-11 16:27 | -25.34804 | -57.75051 | 9473 ft | 54 kts | 24° |
| 2026-04-11 16:27 | -25.34354 | -57.74818 | 9473 ft | 54 kts | 24° |
| 2026-04-11 16:28 | -25.34130 | -57.74702 | 9473 ft | 54 kts | 24° |
| 2026-04-11 16:28 | -25.33680 | -57.74468 | 9473 ft | 54 kts | 23° |
| 2026-04-11 16:28 | -25.33456 | -57.74351 | 9473 ft | 54 kts | 23° |
| 2026-04-11 16:28 | -25.33005 | -57.74117 | 9473 ft | 54 kts | 23° |
| 2026-04-11 16:29 | -25.32678 | -57.73947 | 9473 ft | 54 kts | 23° |
| 2026-04-11 16:29 | -25.32330 | -57.73766 | 9473 ft | 54 kts | 23° |
| 2026-04-11 16:29 | -25.31993 | -57.73591 | 9473 ft | 54 kts | 23° |
| 2026-04-11 16:29 | -25.31655 | -57.73416 | 9473 ft | 54 kts | 23° |
| 2026-04-11 16:30 | -25.31430 | -57.73299 | 9473 ft | 54 kts | 23° |
| 2026-04-11 16:30 | -25.30979 | -57.73065 | 9473 ft | 54 kts | 22° |
| 2026-04-11 16:30 | -25.30641 | -57.72889 | 9473 ft | 54 kts | 22° |
| 2026-04-11 16:30 | -25.30303 | -57.72714 | 9473 ft | 54 kts | 22° |
| 2026-04-11 16:31 | -25.29965 | -57.72538 | 9473 ft | 54 kts | 22° |
| 2026-04-11 16:31 | -25.29739 | -57.72421 | 9473 ft | 54 kts | 22° |
| 2026-04-11 16:31 | -25.29401 | -57.72245 | 9473 ft | 54 kts | 22° |
| 2026-04-11 16:31 | -25.28952 | -57.72012 | 9473 ft | 54 kts | 22° |
| 2026-04-11 16:32 | -25.28724 | -57.71893 | 9473 ft | 54 kts | 22° |
| 2026-04-11 16:32 | -25.28273 | -57.71658 | 9473 ft | 54 kts | 22° |
| 2026-04-11 16:32 | -25.28038 | -57.71573 | 9471 ft | 55 kts | 5° |
| 2026-04-11 16:32 | -25.27554 | -57.71582 | 9492 ft | 51 kts | 26° |
| 2026-04-11 16:33 | -25.27338 | -57.71517 | 9509 ft | 53 kts | 355° |
| 2026-04-11 16:33 | -25.26904 | -57.71816 | 9502 ft | 52 kts | 17° |
| 2026-04-11 16:33 | -25.26747 | -57.71624 | 9540 ft | 51 kts | 45° |
| 2026-04-11 16:33 | -25.26379 | -57.71671 | 9551 ft | 63 kts | 323° |
| 2026-04-11 16:34 | -25.26086 | -57.71866 | 9519 ft | 52 kts | 22° |
| 2026-04-11 16:34 | -25.25945 | -57.71690 | 9556 ft | 51 kts | 44° |
| 2026-04-11 16:34 | -25.25550 | -57.71723 | 9559 ft | 60 kts | 334° |
| 2026-04-11 16:34 | -25.25321 | -57.71833 | 9527 ft | 53 kts | 16° |
| 2026-04-11 16:35 | -25.25083 | -57.71531 | 9562 ft | 50 kts | 34° |
| 2026-04-11 16:35 | -25.24663 | -57.71772 | 9551 ft | 62 kts | 334° |
| 2026-04-11 16:35 | -25.24424 | -57.71815 | 9515 ft | 55 kts | 28° |
| 2026-04-11 16:35 | -25.24071 | -57.71510 | 9537 ft | 56 kts | 351° |
| 2026-04-11 16:36 | -25.23770 | -57.71823 | 9546 ft | 59 kts | 342° |
| 2026-04-11 16:36 | -25.23533 | -57.71780 | 9522 ft | 55 kts | 39° |
| 2026-04-11 16:36 | -25.23332 | -57.71499 | 9555 ft | 50 kts | 19° |
| 2026-04-11 16:36 | -25.22979 | -57.71764 | 9554 ft | 62 kts | 334° |
| 2026-04-11 16:37 | -25.22659 | -57.71709 | 9530 ft | 56 kts | 46° |
| 2026-04-11 16:37 | -25.22423 | -57.71441 | 9541 ft | 53 kts | 0° |
| 2026-04-11 16:37 | -25.22122 | -57.71764 | 9548 ft | 63 kts | 331° |
| 2026-04-11 16:37 | -25.21775 | -57.71547 | 9530 ft | 63 kts | 64° |
| 2026-04-11 16:38 | -25.21697 | -57.71267 | 9538 ft | 53 kts | 34° |
| 2026-04-11 16:38 | -25.21357 | -57.71361 | 9542 ft | 58 kts | 339° |
| 2026-04-11 16:38 | -25.21038 | -57.71306 | 9508 ft | 60 kts | 51° |
| 2026-04-11 16:38 | -25.20808 | -57.70851 | 9528 ft | 53 kts | 1° |
| 2026-04-11 16:39 | -25.20577 | -57.70961 | 9546 ft | 55 kts | 348° |
| 2026-04-11 16:39 | -25.20296 | -57.70784 | 9523 ft | 61 kts | 58° |
| 2026-04-11 16:39 | -25.20138 | -57.70418 | 9535 ft | 51 kts | 13° |
| 2026-04-11 16:39 | -25.19786 | -57.70541 | 9541 ft | 53 kts | 359° |
| 2026-04-11 16:40 | -25.19566 | -57.70241 | 9540 ft | 62 kts | 62° |
| 2026-04-11 16:40 | -25.19236 | -57.69994 | 9549 ft | 54 kts | 350° |
| 2026-04-11 16:40 | -25.18917 | -57.69917 | 9514 ft | 61 kts | 51° |
| 2026-04-11 16:40 | -25.18811 | -57.69480 | 9548 ft | 53 kts | 36° |
| 2026-04-11 16:41 | -25.18466 | -57.69512 | 9550 ft | 54 kts | 352° |
| 2026-04-11 16:41 | -25.18197 | -57.69302 | 9525 ft | 63 kts | 60° |
| 2026-04-11 16:41 | -25.18044 | -57.68925 | 9535 ft | 52 kts | 13° |
| 2026-04-11 16:41 | -25.17688 | -57.69024 | 9540 ft | 53 kts | 3° |
| 2026-04-11 16:42 | -25.17482 | -57.68694 | 9543 ft | 62 kts | 62° |
| 2026-04-11 16:42 | -25.17257 | -57.68429 | 9534 ft | 53 kts | 357° |
| 2026-04-11 16:42 | -25.17022 | -57.68519 | 9545 ft | 53 kts | 357° |
| 2026-04-11 16:43 | -25.16482 | -57.67945 | 9543 ft | 54 kts | 349° |
| 2026-04-11 16:43 | -25.16146 | -57.67935 | 9514 ft | 58 kts | 43° |
| 2026-04-11 16:43 | -25.16037 | -57.67489 | 9551 ft | 55 kts | 44° |
| 2026-04-11 16:43 | -25.15823 | -57.67423 | 9537 ft | 54 kts | 352° |
| 2026-04-11 16:44 | -25.15408 | -57.67331 | 9518 ft | 62 kts | 56° |
| 2026-04-11 16:44 | -25.15274 | -57.66926 | 9540 ft | 51 kts | 22° |
| 2026-04-11 16:44 | -25.15038 | -57.66962 | 9548 ft | 54 kts | 348° |
| 2026-04-11 16:44 | -25.14720 | -57.66876 | 9514 ft | 61 kts | 52° |
| 2026-04-11 16:45 | -25.14609 | -57.66441 | 9545 ft | 53 kts | 33° |
| 2026-04-11 16:45 | -25.14262 | -57.66484 | 9548 ft | 54 kts | 352° |
| 2026-04-11 16:45 | -25.13975 | -57.66107 | 9551 ft | 60 kts | 60° |
| 2026-04-11 16:45 | -25.13712 | -57.65915 | 9539 ft | 54 kts | 351° |
| 2026-04-11 16:46 | -25.13476 | -57.65998 | 9534 ft | 53 kts | 7° |
| 2026-04-11 16:46 | -25.13292 | -57.65662 | 9544 ft | 59 kts | 65° |
| 2026-04-11 16:46 | -25.13078 | -57.65419 | 9531 ft | 52 kts | 354° |
| 2026-04-11 16:46 | -25.12662 | -57.65393 | 9515 ft | 60 kts | 51° |
| 2026-04-11 16:47 | -25.12612 | -57.65089 | 9556 ft | 58 kts | 56° |
| 2026-04-11 16:47 | -25.12214 | -57.65016 | 9552 ft | 52 kts | 352° |
| 2026-04-11 16:47 | -25.12000 | -57.64936 | 9516 ft | 59 kts | 45° |
| 2026-04-11 16:47 | -25.11885 | -57.64496 | 9552 ft | 54 kts | 39° |
| 2026-04-11 16:48 | -25.11549 | -57.64505 | 9552 ft | 53 kts | 350° |
| 2026-04-11 16:48 | -25.11264 | -57.64325 | 9523 ft | 64 kts | 58° |
| 2026-04-11 16:48 | -25.11122 | -57.63926 | 9538 ft | 52 kts | 18° |
| 2026-04-11 16:48 | -25.10768 | -57.64013 | 9544 ft | 53 kts | 359° |
| 2026-04-11 16:49 | -25.10544 | -57.63705 | 9540 ft | 63 kts | 62° |
| 2026-04-11 16:49 | -25.10331 | -57.63411 | 9532 ft | 53 kts | 359° |
| 2026-04-11 16:49 | -25.09978 | -57.63500 | 9528 ft | 53 kts | 18° |
| 2026-04-11 16:49 | -25.09824 | -57.63091 | 9552 ft | 61 kts | 59° |
| 2026-04-11 16:50 | -25.09550 | -57.62918 | 9540 ft | 54 kts | 350° |
| 2026-04-11 16:50 | -25.09207 | -57.62935 | 9515 ft | 57 kts | 37° |
| 2026-04-11 16:50 | -25.09091 | -57.62488 | 9553 ft | 56 kts | 47° |
| 2026-04-11 16:50 | -25.08770 | -57.62444 | 9549 ft | 54 kts | 347° |
| 2026-04-11 16:51 | -25.08426 | -57.62185 | 9539 ft | 63 kts | 62° |
| 2026-04-11 16:51 | -25.08331 | -57.61914 | 9543 ft | 52 kts | 28° |
| 2026-04-11 16:51 | -25.07983 | -57.61975 | 9548 ft | 53 kts | 353° |
| 2026-04-11 16:51 | -25.07707 | -57.61570 | 9552 ft | 61 kts | 59° |
| 2026-04-11 16:52 | -25.07439 | -57.61385 | 9538 ft | 54 kts | 350° |
| 2026-04-11 16:52 | -25.07204 | -57.61468 | 9537 ft | 52 kts | 5° |
| 2026-04-11 16:52 | -25.06979 | -57.60964 | 9553 ft | 58 kts | 50° |
| 2026-04-11 16:52 | -25.06780 | -57.60851 | 9532 ft | 54 kts | 355° |
| 2026-04-11 16:53 | -25.06429 | -57.60933 | 9523 ft | 54 kts | 22° |
| 2026-04-11 16:53 | -25.06286 | -57.60510 | 9553 ft | 60 kts | 57° |
| 2026-04-11 16:53 | -25.05999 | -57.60369 | 9542 ft | 54 kts | 348° |
| 2026-04-11 16:53 | -25.05660 | -57.60370 | 9513 ft | 58 kts | 40° |
| 2026-04-11 16:54 | -25.05550 | -57.59923 | 9556 ft | 56 kts | 46° |
| 2026-04-11 16:54 | -25.05138 | -57.59943 | 9551 ft | 53 kts | 353° |
| 2026-04-11 16:54 | -25.04928 | -57.59838 | 9515 ft | 61 kts | 49° |
| 2026-04-11 16:54 | -25.04774 | -57.59293 | 9541 ft | 51 kts | 16° |
| 2026-04-11 16:55 | -25.04540 | -57.59358 | 9556 ft | 54 kts | 344° |
| 2026-04-11 16:55 | -25.04223 | -57.59294 | 9520 ft | 61 kts | 49° |
| 2026-04-11 16:55 | -25.04101 | -57.58857 | 9551 ft | 53 kts | 33° |
| 2026-04-11 16:55 | -25.04021 | -57.58815 | 9537 ft | 52 kts | 8° |